<?xml version='1.0' encoding='UTF-8'?><gpx version="1.1" creator="JPX - https://github.com/jenetics/jpx" xmlns="http://www.topografix.com/GPX/1/1"><trk><trkseg><trkpt lat="42.07790221833906" lon="12.774855190330115"><ele>462.0</ele><time>2026-03-30T10:54:54Z</time></trkpt><trkpt lat="42.07791694683521" lon="12.7747633895131"><ele>462.0</ele><time>2026-03-30T10:54:56Z</time></trkpt><trkpt lat="42.07793675343636" lon="12.774649241117572"><ele>462.0</ele><time>2026-03-30T10:54:59Z</time></trkpt><trkpt lat="42.0779132562866" lon="12.774553940773728"><ele>462.0</ele><time>2026-03-30T10:55:02Z</time></trkpt><trkpt lat="42.077869059437226" lon="12.774493021599664"><ele>462.0</ele><time>2026-03-30T10:55:04Z</time></trkpt><trkpt lat="42.0777952414258" lon="12.77444337893056"><ele>462.0</ele><time>2026-03-30T10:55:07Z</time></trkpt><trkpt lat="42.07772653465402" lon="12.774439652224869"><ele>462.0</ele><time>2026-03-30T10:55:11Z</time></trkpt><trkpt lat="42.07766164648757" lon="12.77439000004281"><ele>462.0</ele><time>2026-03-30T10:55:15Z</time></trkpt><trkpt lat="42.077599018787254" lon="12.774371915401113"><ele>462.0</ele><time>2026-03-30T10:55:19Z</time></trkpt><trkpt lat="42.077546529393295" lon="12.77430808556668"><ele>462.0</ele><time>2026-03-30T10:55:21Z</time></trkpt><trkpt lat="42.07748540207384" lon="12.77424201599797"><ele>462.0</ele><time>2026-03-30T10:55:23Z</time></trkpt><trkpt lat="42.077380453432404" lon="12.774179005749913"><ele>462.0</ele><time>2026-03-30T10:55:25Z</time></trkpt><trkpt lat="42.077292988316366" lon="12.77418619496984"><ele>462.0</ele><time>2026-03-30T10:55:27Z</time></trkpt><trkpt lat="42.07720778665557" lon="12.774184055446614"><ele>458.0</ele><time>2026-03-30T10:55:29Z</time></trkpt><trkpt lat="42.07712918514782" lon="12.774177756923093"><ele>454.0</ele><time>2026-03-30T10:55:32Z</time></trkpt><trkpt lat="42.07708072887793" lon="12.774109282075244"><ele>450.0</ele><time>2026-03-30T10:55:35Z</time></trkpt><trkpt lat="42.07706138854552" lon="12.773977779035633"><ele>446.0</ele><time>2026-03-30T10:55:38Z</time></trkpt><trkpt lat="42.077041543615145" lon="12.77389650820288"><ele>442.0</ele><time>2026-03-30T10:55:40Z</time></trkpt><trkpt lat="42.07701884516899" lon="12.773788338566254"><ele>438.0</ele><time>2026-03-30T10:55:42Z</time></trkpt><trkpt lat="42.07699931313365" lon="12.773665670172258"><ele>438.0</ele><time>2026-03-30T10:55:44Z</time></trkpt><trkpt lat="42.07696967151153" lon="12.773581917518444"><ele>438.0</ele><time>2026-03-30T10:55:46Z</time></trkpt><trkpt lat="42.07695469644485" lon="12.77347041884533"><ele>438.0</ele><time>2026-03-30T10:55:49Z</time></trkpt><trkpt lat="42.07691280308894" lon="12.773394182182688"><ele>438.0</ele><time>2026-03-30T10:55:52Z</time></trkpt><trkpt lat="42.076841899073955" lon="12.773420878465334"><ele>438.0</ele><time>2026-03-30T10:56:01Z</time></trkpt><trkpt lat="42.07678721761973" lon="12.773506331810664"><ele>438.0</ele><time>2026-03-30T10:56:03Z</time></trkpt><trkpt lat="42.076735233239766" lon="12.773617933628168"><ele>438.0</ele><time>2026-03-30T10:56:05Z</time></trkpt><trkpt lat="42.076698271403366" lon="12.773753845718815"><ele>437.99999999999994</ele><time>2026-03-30T10:56:07Z</time></trkpt><trkpt lat="42.07667794895897" lon="12.773890124088075"><ele>437.99999999999994</ele><time>2026-03-30T10:56:09Z</time></trkpt><trkpt lat="42.076678864195" lon="12.774028054411565"><ele>438.0</ele><time>2026-03-30T10:56:11Z</time></trkpt><trkpt lat="42.07669452756721" lon="12.774188213985012"><ele>438.0</ele><time>2026-03-30T10:56:13Z</time></trkpt><trkpt lat="42.07671173273543" lon="12.774283438963005"><ele>438.3333333333333</ele><time>2026-03-30T10:56:14Z</time></trkpt><trkpt lat="42.07673039459023" lon="12.774389695078549"><ele>438.66666666666663</ele><time>2026-03-30T10:56:15Z</time></trkpt><trkpt lat="42.07675157607089" lon="12.77449375950229"><ele>439.0</ele><time>2026-03-30T10:56:16Z</time></trkpt><trkpt lat="42.07677144441004" lon="12.774583356126024"><ele>439.3333333333333</ele><time>2026-03-30T10:56:17Z</time></trkpt><trkpt lat="42.07680555130315" lon="12.774728032857887"><ele>439.66666666666663</ele><time>2026-03-30T10:56:19Z</time></trkpt><trkpt lat="42.07680170666506" lon="12.774863021962348"><ele>440.0</ele><time>2026-03-30T10:56:21Z</time></trkpt><trkpt lat="42.07679134325087" lon="12.774988460944313"><ele>439.99999999999994</ele><time>2026-03-30T10:56:23Z</time></trkpt><trkpt lat="42.076781636917744" lon="12.775110226452057"><ele>440.0</ele><time>2026-03-30T10:56:25Z</time></trkpt><trkpt lat="42.076753536046915" lon="12.775191634730097"><ele>440.0</ele><time>2026-03-30T10:56:28.001Z</time></trkpt><trkpt lat="42.07668760875636" lon="12.775222965178441"><ele>440.0</ele><time>2026-03-30T10:56:31.001Z</time></trkpt><trkpt lat="42.076624157741946" lon="12.77518620367605"><ele>439.99999999999994</ele><time>2026-03-30T10:56:34.001Z</time></trkpt><trkpt lat="42.07651835998803" lon="12.775179271966195"><ele>440.0</ele><time>2026-03-30T10:56:36.001Z</time></trkpt><trkpt lat="42.07639430337032" lon="12.77519366026452"><ele>438.99999999999994</ele><time>2026-03-30T10:56:38.001Z</time></trkpt><trkpt lat="42.07632503686623" lon="12.775195566723868"><ele>438.0</ele><time>2026-03-30T10:56:39.001Z</time></trkpt><trkpt lat="42.07625022452543" lon="12.775175734973846"><ele>437.0</ele><time>2026-03-30T10:56:40.001Z</time></trkpt><trkpt lat="42.07618524076493" lon="12.77516262676169"><ele>436.0</ele><time>2026-03-30T10:56:41.001Z</time></trkpt><trkpt lat="42.076121442174674" lon="12.775163880947023"><ele>435.0</ele><time>2026-03-30T10:56:42.001Z</time></trkpt><trkpt lat="42.07605121638695" lon="12.775145746545299"><ele>433.99999999999994</ele><time>2026-03-30T10:56:43.001Z</time></trkpt><trkpt lat="42.0759832598759" lon="12.775123960176396"><ele>433.0</ele><time>2026-03-30T10:56:44.001Z</time></trkpt><trkpt lat="42.075864735282224" lon="12.775097467796515"><ele>432.79999999999995</ele><time>2026-03-30T10:56:46.001Z</time></trkpt><trkpt lat="42.075737083023256" lon="12.775060328705194"><ele>432.59999999999997</ele><time>2026-03-30T10:56:48.001Z</time></trkpt><trkpt lat="42.07565422504701" lon="12.775038712669534"><ele>432.40000000000003</ele><time>2026-03-30T10:56:49.001Z</time></trkpt><trkpt lat="42.075584259205165" lon="12.775012540179851"><ele>432.20000000000005</ele><time>2026-03-30T10:56:50.001Z</time></trkpt><trkpt lat="42.075514098792" lon="12.774986627539166"><ele>432.0</ele><time>2026-03-30T10:56:51.001Z</time></trkpt><trkpt lat="42.075394810265266" lon="12.774953494195714"><ele>432.0</ele><time>2026-03-30T10:56:53.001Z</time></trkpt><trkpt lat="42.07529509761588" lon="12.774924878197641"><ele>432.00000000000006</ele><time>2026-03-30T10:56:55.001Z</time></trkpt><trkpt lat="42.07520452838783" lon="12.774872665219098"><ele>432.00000000000006</ele><time>2026-03-30T10:56:57.001Z</time></trkpt><trkpt lat="42.07508860126645" lon="12.774829095813967"><ele>432.0</ele><time>2026-03-30T10:56:59.001Z</time></trkpt><trkpt lat="42.07502537822041" lon="12.774804702851155"><ele>432.0</ele><time>2026-03-30T10:57:00.001Z</time></trkpt><trkpt lat="42.07493148917644" lon="12.774764437659298"><ele>431.5</ele><time>2026-03-30T10:57:01.001Z</time></trkpt><trkpt lat="42.07482636871098" lon="12.774723466720912"><ele>431.0</ele><time>2026-03-30T10:57:02.001Z</time></trkpt><trkpt lat="42.07470526362388" lon="12.774688393852806"><ele>430.5</ele><time>2026-03-30T10:57:03.001Z</time></trkpt><trkpt lat="42.074593735695984" lon="12.774663868301662"><ele>430.0</ele><time>2026-03-30T10:57:04.001Z</time></trkpt><trkpt lat="42.07449029391387" lon="12.77465000054822"><ele>430.0</ele><time>2026-03-30T10:57:05.001Z</time></trkpt><trkpt lat="42.07439561641566" lon="12.774637644174033"><ele>430.0</ele><time>2026-03-30T10:57:06.001Z</time></trkpt><trkpt lat="42.07430348438796" lon="12.774627467826445"><ele>430.0</ele><time>2026-03-30T10:57:07.001Z</time></trkpt><trkpt lat="42.074203450001555" lon="12.77461985925777"><ele>430.0</ele><time>2026-03-30T10:57:08.001Z</time></trkpt><trkpt lat="42.074096076540464" lon="12.774609561418055"><ele>430.0</ele><time>2026-03-30T10:57:09.001Z</time></trkpt><trkpt lat="42.07399277504105" lon="12.774589687746868"><ele>429.0</ele><time>2026-03-30T10:57:10.001Z</time></trkpt><trkpt lat="42.073901393320355" lon="12.77456718978535"><ele>428.0</ele><time>2026-03-30T10:57:11.001Z</time></trkpt><trkpt lat="42.07381375860035" lon="12.774551192521393"><ele>427.0</ele><time>2026-03-30T10:57:12.001Z</time></trkpt><trkpt lat="42.073744151036735" lon="12.774540652406492"><ele>426.0</ele><time>2026-03-30T10:57:13.001Z</time></trkpt><trkpt lat="42.07361054311614" lon="12.774513048580996"><ele>425.0</ele><time>2026-03-30T10:57:15.001Z</time></trkpt><trkpt lat="42.07351252470126" lon="12.774342886382748"><ele>424.99999999999994</ele><time>2026-03-30T10:57:17.001Z</time></trkpt><trkpt lat="42.07343910582556" lon="12.774343083290953"><ele>425.0</ele><time>2026-03-30T10:57:19.001Z</time></trkpt><trkpt lat="42.073366089685784" lon="12.774343463067726"><ele>425.0</ele><time>2026-03-30T10:57:25.001Z</time></trkpt><trkpt lat="42.073283461042436" lon="12.774355519445127"><ele>425.0</ele><time>2026-03-30T10:57:28.001Z</time></trkpt><trkpt lat="42.07318189543789" lon="12.774317059833141"><ele>424.99999999999994</ele><time>2026-03-30T10:57:30.001Z</time></trkpt><trkpt lat="42.07311905860034" lon="12.774308107012471"><ele>425.0</ele><time>2026-03-30T10:57:31.001Z</time></trkpt><trkpt lat="42.07300315503427" lon="12.774311116976"><ele>422.4</ele><time>2026-03-30T10:57:33.001Z</time></trkpt><trkpt lat="42.07293788596046" lon="12.774327749467465"><ele>419.8</ele><time>2026-03-30T10:57:34.001Z</time></trkpt><trkpt lat="42.07280509327552" lon="12.774382579563971"><ele>417.20000000000005</ele><time>2026-03-30T10:57:36.001Z</time></trkpt><trkpt lat="42.07272751970293" lon="12.774422793605076"><ele>414.6</ele><time>2026-03-30T10:57:37.001Z</time></trkpt><trkpt lat="42.07263610054203" lon="12.774470686495599"><ele>412.0</ele><time>2026-03-30T10:57:38.001Z</time></trkpt><trkpt lat="42.07256223519519" lon="12.774509383181632"><ele>412.00000000000006</ele><time>2026-03-30T10:57:39.001Z</time></trkpt><trkpt lat="42.07248882208631" lon="12.77454831880367"><ele>412.0</ele><time>2026-03-30T10:57:40.001Z</time></trkpt><trkpt lat="42.07240924238676" lon="12.774591068126325"><ele>412.0</ele><time>2026-03-30T10:57:41.001Z</time></trkpt><trkpt lat="42.072327647025766" lon="12.774635818312467"><ele>412.0</ele><time>2026-03-30T10:57:42.001Z</time></trkpt><trkpt lat="42.07224784009247" lon="12.774680546532196"><ele>412.00000000000006</ele><time>2026-03-30T10:57:43.001Z</time></trkpt><trkpt lat="42.07215874199942" lon="12.774733396583331"><ele>412.0</ele><time>2026-03-30T10:57:44.001Z</time></trkpt><trkpt lat="42.07207258242589" lon="12.774784965242567"><ele>408.8</ele><time>2026-03-30T10:57:45.001Z</time></trkpt><trkpt lat="42.071976309769774" lon="12.77484258679957"><ele>405.6</ele><time>2026-03-30T10:57:46.001Z</time></trkpt><trkpt lat="42.0718815268414" lon="12.774896256750754"><ele>402.40000000000003</ele><time>2026-03-30T10:57:47.001Z</time></trkpt><trkpt lat="42.07179647401536" lon="12.774943396684613"><ele>399.20000000000005</ele><time>2026-03-30T10:57:48.001Z</time></trkpt><trkpt lat="42.07171187050027" lon="12.77499522705829"><ele>396.0</ele><time>2026-03-30T10:57:49.001Z</time></trkpt><trkpt lat="42.07164445753692" lon="12.775045204101682"><ele>395.5</ele><time>2026-03-30T10:57:50.001Z</time></trkpt><trkpt lat="42.071582851145884" lon="12.775101366996116"><ele>395.0</ele><time>2026-03-30T10:57:51.001Z</time></trkpt><trkpt lat="42.071525986657534" lon="12.775156031824391"><ele>394.5</ele><time>2026-03-30T10:57:52.001Z</time></trkpt><trkpt lat="42.07146479912428" lon="12.775221466129338"><ele>394.0</ele><time>2026-03-30T10:57:53.001Z</time></trkpt><trkpt lat="42.07140942759111" lon="12.775285291588524"><ele>393.5</ele><time>2026-03-30T10:57:54.001Z</time></trkpt><trkpt lat="42.07134904781359" lon="12.775354889888025"><ele>393.0</ele><time>2026-03-30T10:57:55.001Z</time></trkpt><trkpt lat="42.07129367083736" lon="12.775448067103463"><ele>393.0</ele><time>2026-03-30T10:57:56.001Z</time></trkpt><trkpt lat="42.07121180826331" lon="12.775520755684232"><ele>393.0</ele><time>2026-03-30T10:57:57.001Z</time></trkpt><trkpt lat="42.07114602308275" lon="12.775616917569756"><ele>393.0</ele><time>2026-03-30T10:57:58.001Z</time></trkpt><trkpt lat="42.071086531141155" lon="12.775739665460915"><ele>393.0</ele><time>2026-03-30T10:57:59.001Z</time></trkpt><trkpt lat="42.07101014976468" lon="12.7758555110553"><ele>393.0</ele><time>2026-03-30T10:58:00.001Z</time></trkpt><trkpt lat="42.07093637738702" lon="12.775971349266046"><ele>392.5</ele><time>2026-03-30T10:58:01.001Z</time></trkpt><trkpt lat="42.070867127722316" lon="12.776096075663277"><ele>392.0</ele><time>2026-03-30T10:58:02.001Z</time></trkpt><trkpt lat="42.07079465186465" lon="12.776221397982281"><ele>391.5</ele><time>2026-03-30T10:58:03.001Z</time></trkpt><trkpt lat="42.07072517535214" lon="12.776346817465646"><ele>391.0</ele><time>2026-03-30T10:58:04.001Z</time></trkpt><trkpt lat="42.07064668037273" lon="12.776446062495763"><ele>391.0</ele><time>2026-03-30T10:58:05.001Z</time></trkpt><trkpt lat="42.07057200029443" lon="12.77656484239514"><ele>391.0</ele><time>2026-03-30T10:58:06.001Z</time></trkpt><trkpt lat="42.07049214577732" lon="12.776673376722377"><ele>391.0</ele><time>2026-03-30T10:58:07.001Z</time></trkpt><trkpt lat="42.07040953170025" lon="12.776778291174866"><ele>391.0</ele><time>2026-03-30T10:58:08.001Z</time></trkpt><trkpt lat="42.070339674767915" lon="12.776871586406353"><ele>391.0</ele><time>2026-03-30T10:58:09.001Z</time></trkpt><trkpt lat="42.07027571230112" lon="12.776957723061724"><ele>393.0</ele><time>2026-03-30T10:58:10.001Z</time></trkpt><trkpt lat="42.070212759978745" lon="12.777052326501435"><ele>395.0</ele><time>2026-03-30T10:58:11.001Z</time></trkpt><trkpt lat="42.070126953995725" lon="12.777132383766006"><ele>397.0</ele><time>2026-03-30T10:58:12.001Z</time></trkpt><trkpt lat="42.070021151705916" lon="12.777223427014846"><ele>399.0</ele><time>2026-03-30T10:58:13.001Z</time></trkpt><trkpt lat="42.0699203457186" lon="12.777301631624434"><ele>401.0</ele><time>2026-03-30T10:58:14.001Z</time></trkpt><trkpt lat="42.06983646253949" lon="12.777388957706332"><ele>400.99999999999994</ele><time>2026-03-30T10:58:15.001Z</time></trkpt><trkpt lat="42.06975803350535" lon="12.777441259064808"><ele>401.0</ele><time>2026-03-30T10:58:16.001Z</time></trkpt><trkpt lat="42.06968202719649" lon="12.777468217073986"><ele>401.0</ele><time>2026-03-30T10:58:17.001Z</time></trkpt><trkpt lat="42.069605431910446" lon="12.777511259800617"><ele>401.0</ele><time>2026-03-30T10:58:18.001Z</time></trkpt><trkpt lat="42.06952639632479" lon="12.777539372594156"><ele>400.99999999999994</ele><time>2026-03-30T10:58:19.001Z</time></trkpt><trkpt lat="42.06943151126083" lon="12.777587361165212"><ele>401.0</ele><time>2026-03-30T10:58:21.001Z</time></trkpt><trkpt lat="42.06932562493471" lon="12.777622083995665"><ele>400.99999999999994</ele><time>2026-03-30T10:58:23.001Z</time></trkpt><trkpt lat="42.0692680012149" lon="12.777673427300003"><ele>401.0</ele><time>2026-03-30T10:58:24.001Z</time></trkpt><trkpt lat="42.06920251036116" lon="12.777716330243525"><ele>401.0</ele><time>2026-03-30T10:58:25.001Z</time></trkpt><trkpt lat="42.06912316336646" lon="12.777780822520635"><ele>401.0</ele><time>2026-03-30T10:58:26.001Z</time></trkpt><trkpt lat="42.069061415198" lon="12.77783711013825"><ele>400.99999999999994</ele><time>2026-03-30T10:58:27.001Z</time></trkpt><trkpt lat="42.069017508687935" lon="12.777903749287256"><ele>401.0</ele><time>2026-03-30T10:58:28.001Z</time></trkpt><trkpt lat="42.06893437033822" lon="12.778026533394115"><ele>400.8333333333333</ele><time>2026-03-30T10:58:30.001Z</time></trkpt><trkpt lat="42.068900248357245" lon="12.778125189904204"><ele>400.66666666666663</ele><time>2026-03-30T10:58:31.001Z</time></trkpt><trkpt lat="42.068871423672746" lon="12.77823613305735"><ele>400.5</ele><time>2026-03-30T10:58:32.001Z</time></trkpt><trkpt lat="42.0688561323808" lon="12.778372120007985"><ele>400.33333333333337</ele><time>2026-03-30T10:58:34.001Z</time></trkpt><trkpt lat="42.06882618728318" lon="12.7784474434712"><ele>400.1666666666667</ele><time>2026-03-30T10:58:36.001Z</time></trkpt><trkpt lat="42.06875499492153" lon="12.778473972449179"><ele>400.0</ele><time>2026-03-30T10:58:41.001Z</time></trkpt><trkpt lat="42.068776078475764" lon="12.778321438766248"><ele>400.00000000000006</ele><time>2026-03-30T10:58:43.001Z</time></trkpt><trkpt lat="42.068794869086666" lon="12.778152986392355"><ele>400.0</ele><time>2026-03-30T10:58:45.001Z</time></trkpt><trkpt lat="42.068788871001516" lon="12.778043232060252"><ele>400.0</ele><time>2026-03-30T10:58:46.001Z</time></trkpt><trkpt lat="42.06881505001505" lon="12.777946159600935"><ele>400.0</ele><time>2026-03-30T10:58:47.001Z</time></trkpt><trkpt lat="42.068826139611076" lon="12.777861688110677"><ele>400.00000000000006</ele><time>2026-03-30T10:58:48.001Z</time></trkpt><trkpt lat="42.06884739302926" lon="12.777769432361387"><ele>400.0</ele><time>2026-03-30T10:58:49.001Z</time></trkpt><trkpt lat="42.06887511584893" lon="12.77767469503157"><ele>397.50000000000006</ele><time>2026-03-30T10:58:50.001Z</time></trkpt><trkpt lat="42.068932715373336" lon="12.777533227662579"><ele>395.0</ele><time>2026-03-30T10:58:52.001Z</time></trkpt><trkpt lat="42.06896634346184" lon="12.77745869705812"><ele>392.5</ele><time>2026-03-30T10:58:53.001Z</time></trkpt><trkpt lat="42.06899677630413" lon="12.777325316033139"><ele>390.0</ele><time>2026-03-30T10:58:55.001Z</time></trkpt><trkpt lat="42.06897692673977" lon="12.777243346648818"><ele>387.50000000000006</ele><time>2026-03-30T10:58:56.001Z</time></trkpt><trkpt lat="42.06890016907461" lon="12.777201521192113"><ele>385.0</ele><time>2026-03-30T10:58:57.001Z</time></trkpt><trkpt lat="42.06881675347909" lon="12.777263922203344"><ele>385.00000000000006</ele><time>2026-03-30T10:58:58.001Z</time></trkpt><trkpt lat="42.06874281350184" lon="12.777246988090848"><ele>385.0</ele><time>2026-03-30T10:58:59.001Z</time></trkpt><trkpt lat="42.06866369750372" lon="12.777249070081886"><ele>385.0</ele><time>2026-03-30T10:59:00.001Z</time></trkpt><trkpt lat="42.068584600259555" lon="12.777250299600745"><ele>385.0</ele><time>2026-03-30T10:59:01.001Z</time></trkpt><trkpt lat="42.068519079607846" lon="12.777249064307497"><ele>385.00000000000006</ele><time>2026-03-30T10:59:02.001Z</time></trkpt><trkpt lat="42.06843215591186" lon="12.777222194493694"><ele>385.0</ele><time>2026-03-30T10:59:04.001Z</time></trkpt><trkpt lat="42.068385165543305" lon="12.777088270738798"><ele>385.0</ele><time>2026-03-30T10:59:06.001Z</time></trkpt><trkpt lat="42.068350634145126" lon="12.776976859180182"><ele>385.0</ele><time>2026-03-30T10:59:09.001Z</time></trkpt><trkpt lat="42.06824208449846" lon="12.776999485126835"><ele>385.0</ele><time>2026-03-30T10:59:12.001Z</time></trkpt><trkpt lat="42.06812780040853" lon="12.777088520194686"><ele>385.0</ele><time>2026-03-30T10:59:14.001Z</time></trkpt><trkpt lat="42.06807424939062" lon="12.777140534971277"><ele>385.0</ele><time>2026-03-30T10:59:15.001Z</time></trkpt><trkpt lat="42.06801997777433" lon="12.777193249551551"><ele>382.2</ele><time>2026-03-30T10:59:16.001Z</time></trkpt><trkpt lat="42.067929858791025" lon="12.777288995413235"><ele>379.4</ele><time>2026-03-30T10:59:18.001Z</time></trkpt><trkpt lat="42.06787460078951" lon="12.777414788726622"><ele>376.6</ele><time>2026-03-30T10:59:20.001Z</time></trkpt><trkpt lat="42.067807251305446" lon="12.777500991251065"><ele>373.8</ele><time>2026-03-30T10:59:22.001Z</time></trkpt><trkpt lat="42.06774559786005" lon="12.777589603194517"><ele>371.0</ele><time>2026-03-30T10:59:24.001Z</time></trkpt><trkpt lat="42.06765795177508" lon="12.777630407308852"><ele>371.0</ele><time>2026-03-30T10:59:26.001Z</time></trkpt><trkpt lat="42.06754276857214" lon="12.77764464793745"><ele>371.0</ele><time>2026-03-30T10:59:28.001Z</time></trkpt><trkpt lat="42.0674776213458" lon="12.77764464793664"><ele>371.0</ele><time>2026-03-30T10:59:29.001Z</time></trkpt><trkpt lat="42.06736163811952" lon="12.777631016079955"><ele>371.0</ele><time>2026-03-30T10:59:31.001Z</time></trkpt><trkpt lat="42.06725415098813" lon="12.777625843646614"><ele>371.0</ele><time>2026-03-30T10:59:33.001Z</time></trkpt><trkpt lat="42.0671595159648" lon="12.777648964701482"><ele>370.20000000000005</ele><time>2026-03-30T10:59:35.001Z</time></trkpt><trkpt lat="42.06706242736284" lon="12.777680501013082"><ele>369.40000000000003</ele><time>2026-03-30T10:59:37.001Z</time></trkpt><trkpt lat="42.067000460368426" lon="12.777696732888844"><ele>368.6</ele><time>2026-03-30T10:59:38.001Z</time></trkpt><trkpt lat="42.06689261291732" lon="12.777759753773708"><ele>367.8</ele><time>2026-03-30T10:59:40.001Z</time></trkpt><trkpt lat="42.066779567494" lon="12.777840897978985"><ele>367.0</ele><time>2026-03-30T10:59:42.001Z</time></trkpt><trkpt lat="42.06668644468342" lon="12.777896272218495"><ele>367.0</ele><time>2026-03-30T10:59:44.001Z</time></trkpt><trkpt lat="42.06663341854399" lon="12.77784984533601"><ele>367.0</ele><time>2026-03-30T10:59:47.001Z</time></trkpt><trkpt lat="42.066678046191065" lon="12.777747215691805"><ele>367.0</ele><time>2026-03-30T10:59:48.001Z</time></trkpt><trkpt lat="42.06668538153167" lon="12.77764965308922"><ele>367.0</ele><time>2026-03-30T10:59:49.001Z</time></trkpt><trkpt lat="42.06668219071946" lon="12.777546996503037"><ele>367.0</ele><time>2026-03-30T10:59:50.002Z</time></trkpt><trkpt lat="42.066665407414405" lon="12.777447226098616"><ele>367.0</ele><time>2026-03-30T10:59:51.002Z</time></trkpt><trkpt lat="42.066667026105435" lon="12.77733351762732"><ele>364.20000000000005</ele><time>2026-03-30T10:59:53.002Z</time></trkpt><trkpt lat="42.0667149922874" lon="12.777208682713395"><ele>361.4</ele><time>2026-03-30T10:59:55.002Z</time></trkpt><trkpt lat="42.06673403700068" lon="12.777058828083145"><ele>358.6</ele><time>2026-03-30T10:59:57.002Z</time></trkpt><trkpt lat="42.06671737636943" lon="12.776950268104597"><ele>355.79999999999995</ele><time>2026-03-30T10:59:58.002Z</time></trkpt><trkpt lat="42.0666976116405" lon="12.77684787678788"><ele>353.0</ele><time>2026-03-30T10:59:59.002Z</time></trkpt><trkpt lat="42.06667404140636" lon="12.77673828707851"><ele>350.59999999999997</ele><time>2026-03-30T11:00:00.002Z</time></trkpt><trkpt lat="42.06665075516841" lon="12.776630018017293"><ele>348.2</ele><time>2026-03-30T11:00:01.002Z</time></trkpt><trkpt lat="42.06662654541989" lon="12.77651745471047"><ele>345.8</ele><time>2026-03-30T11:00:02.002Z</time></trkpt><trkpt lat="42.066598535867286" lon="12.776405735868249"><ele>343.4</ele><time>2026-03-30T11:00:03.002Z</time></trkpt><trkpt lat="42.066560682309145" lon="12.77632459257621"><ele>341.0</ele><time>2026-03-30T11:00:04.002Z</time></trkpt><trkpt lat="42.06649155409945" lon="12.776178358081388"><ele>340.6</ele><time>2026-03-30T11:00:06.002Z</time></trkpt><trkpt lat="42.06641491342904" lon="12.776030859745244"><ele>340.20000000000005</ele><time>2026-03-30T11:00:08.001Z</time></trkpt><trkpt lat="42.06637184693603" lon="12.775935178935724"><ele>339.79999999999995</ele><time>2026-03-30T11:00:09.001Z</time></trkpt><trkpt lat="42.06632112788234" lon="12.775813732878794"><ele>339.4</ele><time>2026-03-30T11:00:10.001Z</time></trkpt><trkpt lat="42.066269066283574" lon="12.7756816024876"><ele>339.0</ele><time>2026-03-30T11:00:11.001Z</time></trkpt><trkpt lat="42.0662191623626" lon="12.775551883357101"><ele>336.6</ele><time>2026-03-30T11:00:12.001Z</time></trkpt><trkpt lat="42.06616997300475" lon="12.775423236925397"><ele>334.2</ele><time>2026-03-30T11:00:13.001Z</time></trkpt><trkpt lat="42.06612119506679" lon="12.775295666214648"><ele>331.8</ele><time>2026-03-30T11:00:14.001Z</time></trkpt><trkpt lat="42.06607144700703" lon="12.775175657736245"><ele>329.40000000000003</ele><time>2026-03-30T11:00:15.001Z</time></trkpt><trkpt lat="42.066028018536564" lon="12.77507757423264"><ele>327.0</ele><time>2026-03-30T11:00:16.001Z</time></trkpt><trkpt lat="42.065996683727896" lon="12.775001788205952"><ele>325.40000000000003</ele><time>2026-03-30T11:00:17.001Z</time></trkpt><trkpt lat="42.0659747089146" lon="12.774848024167072"><ele>323.8</ele><time>2026-03-30T11:00:19.001Z</time></trkpt><trkpt lat="42.06597782864212" lon="12.774755543306052"><ele>322.2</ele><time>2026-03-30T11:00:20.001Z</time></trkpt><trkpt lat="42.0659815251371" lon="12.774642946226953"><ele>320.6</ele><time>2026-03-30T11:00:21.001Z</time></trkpt><trkpt lat="42.06597510805528" lon="12.774518200912453"><ele>319.0</ele><time>2026-03-30T11:00:22.001Z</time></trkpt><trkpt lat="42.06595423473984" lon="12.774388509550226"><ele>318.4</ele><time>2026-03-30T11:00:23.001Z</time></trkpt><trkpt lat="42.06591868472799" lon="12.774250853588116"><ele>317.79999999999995</ele><time>2026-03-30T11:00:24.001Z</time></trkpt><trkpt lat="42.06588105843782" lon="12.774116990051878"><ele>317.20000000000005</ele><time>2026-03-30T11:00:25.001Z</time></trkpt><trkpt lat="42.065844868309505" lon="12.77399601558357"><ele>316.6</ele><time>2026-03-30T11:00:26.001Z</time></trkpt><trkpt lat="42.065811122239104" lon="12.773883210739525"><ele>316.0</ele><time>2026-03-30T11:00:27.001Z</time></trkpt><trkpt lat="42.06578060307452" lon="12.773781192944572"><ele>315.28571428571433</ele><time>2026-03-30T11:00:28.001Z</time></trkpt><trkpt lat="42.06575092014701" lon="12.773681970285534"><ele>314.57142857142856</ele><time>2026-03-30T11:00:29.001Z</time></trkpt><trkpt lat="42.06572348061693" lon="12.773586411756542"><ele>313.8571428571429</ele><time>2026-03-30T11:00:30.001Z</time></trkpt><trkpt lat="42.06570114480506" lon="12.773494045531637"><ele>313.14285714285717</ele><time>2026-03-30T11:00:31.001Z</time></trkpt><trkpt lat="42.065683711905265" lon="12.773405210986153"><ele>312.42857142857144</ele><time>2026-03-30T11:00:32.001Z</time></trkpt><trkpt lat="42.06565845047959" lon="12.773312550033634"><ele>311.7142857142857</ele><time>2026-03-30T11:00:33.001Z</time></trkpt><trkpt lat="42.065680274507805" lon="12.77321273591893"><ele>311.0</ele><time>2026-03-30T11:00:34.001Z</time></trkpt><trkpt lat="42.06568809983477" lon="12.773105814623145"><ele>309.6666666666667</ele><time>2026-03-30T11:00:35.001Z</time></trkpt><trkpt lat="42.06567751243665" lon="12.772994588447844"><ele>308.33333333333337</ele><time>2026-03-30T11:00:36.001Z</time></trkpt><trkpt lat="42.06568379206435" lon="12.77288286867462"><ele>307.0</ele><time>2026-03-30T11:00:37.001Z</time></trkpt><trkpt lat="42.06568965501432" lon="12.772776613741328"><ele>305.6666666666667</ele><time>2026-03-30T11:00:38.001Z</time></trkpt><trkpt lat="42.06569739281846" lon="12.772665424371631"><ele>304.3333333333333</ele><time>2026-03-30T11:00:39.001Z</time></trkpt><trkpt lat="42.06570414107938" lon="12.772556730013878"><ele>303.0</ele><time>2026-03-30T11:00:40.001Z</time></trkpt><trkpt lat="42.0656987850572" lon="12.772448827045622"><ele>301.8</ele><time>2026-03-30T11:00:41.001Z</time></trkpt><trkpt lat="42.06568142551578" lon="12.772339940975693"><ele>300.6</ele><time>2026-03-30T11:00:42.001Z</time></trkpt><trkpt lat="42.06567810415876" lon="12.772212738107221"><ele>299.4</ele><time>2026-03-30T11:00:43.001Z</time></trkpt><trkpt lat="42.06566425385625" lon="12.772080217468872"><ele>298.2</ele><time>2026-03-30T11:00:44.001Z</time></trkpt><trkpt lat="42.06564456596099" lon="12.771954298154544"><ele>297.0</ele><time>2026-03-30T11:00:45.001Z</time></trkpt><trkpt lat="42.0656266303045" lon="12.771835548681171"><ele>295.8333333333333</ele><time>2026-03-30T11:00:46.001Z</time></trkpt><trkpt lat="42.06561813942214" lon="12.771717298139569"><ele>294.6666666666667</ele><time>2026-03-30T11:00:47.001Z</time></trkpt><trkpt lat="42.06561547695249" lon="12.771607580181282"><ele>293.5</ele><time>2026-03-30T11:00:48.001Z</time></trkpt><trkpt lat="42.06561840952617" lon="12.771494616915813"><ele>292.33333333333337</ele><time>2026-03-30T11:00:49.001Z</time></trkpt><trkpt lat="42.06563493209234" lon="12.771371298451072"><ele>291.1666666666667</ele><time>2026-03-30T11:00:50.001Z</time></trkpt><trkpt lat="42.06565384397456" lon="12.771249542044561"><ele>290.0</ele><time>2026-03-30T11:00:51.001Z</time></trkpt><trkpt lat="42.06567205678734" lon="12.771127660079165"><ele>289.2</ele><time>2026-03-30T11:00:52.001Z</time></trkpt><trkpt lat="42.06567537827845" lon="12.771001920175612"><ele>288.4</ele><time>2026-03-30T11:00:53.001Z</time></trkpt><trkpt lat="42.06569537332384" lon="12.770879985826205"><ele>287.6</ele><time>2026-03-30T11:00:54.001Z</time></trkpt><trkpt lat="42.06571702903868" lon="12.770755625940382"><ele>286.8</ele><time>2026-03-30T11:00:55.001Z</time></trkpt><trkpt lat="42.06574104993179" lon="12.770632839240308"><ele>286.0</ele><time>2026-03-30T11:00:56.001Z</time></trkpt><trkpt lat="42.06576205883084" lon="12.770509010170718"><ele>286.0</ele><time>2026-03-30T11:00:57.001Z</time></trkpt><trkpt lat="42.065783709457655" lon="12.770389688393387"><ele>286.0</ele><time>2026-03-30T11:00:58.001Z</time></trkpt><trkpt lat="42.065804364409935" lon="12.770267191537418"><ele>286.0</ele><time>2026-03-30T11:00:59.001Z</time></trkpt><trkpt lat="42.065827570234134" lon="12.770151153754375"><ele>286.0</ele><time>2026-03-30T11:01:00.001Z</time></trkpt><trkpt lat="42.065846352019356" lon="12.770044952928812"><ele>286.0</ele><time>2026-03-30T11:01:01.001Z</time></trkpt><trkpt lat="42.065859775800305" lon="12.769960388650755"><ele>286.0</ele><time>2026-03-30T11:01:02.001Z</time></trkpt><trkpt lat="42.06587846096145" lon="12.769865593490652"><ele>284.8</ele><time>2026-03-30T11:01:18.001Z</time></trkpt><trkpt lat="42.06571824336448" lon="12.769880265248782"><ele>283.6</ele><time>2026-03-30T11:01:20.001Z</time></trkpt><trkpt lat="42.065660780854635" lon="12.769927067510517"><ele>282.4</ele><time>2026-03-30T11:01:21.001Z</time></trkpt><trkpt lat="42.06557694577642" lon="12.769971049681889"><ele>281.2</ele><time>2026-03-30T11:01:22.001Z</time></trkpt><trkpt lat="42.065453126020124" lon="12.770018313290343"><ele>280.0</ele><time>2026-03-30T11:01:23.001Z</time></trkpt><trkpt lat="42.06531437694791" lon="12.770065860165234"><ele>280.0</ele><time>2026-03-30T11:01:24.001Z</time></trkpt><trkpt lat="42.065215431492035" lon="12.770116276252217"><ele>280.0</ele><time>2026-03-30T11:01:25.001Z</time></trkpt><trkpt lat="42.06504121741749" lon="12.770196945753616"><ele>280.0</ele><time>2026-03-30T11:01:26.001Z</time></trkpt><trkpt lat="42.064865826694984" lon="12.77029341123157"><ele>280.3333333333333</ele><time>2026-03-30T11:01:27.001Z</time></trkpt><trkpt lat="42.064685179216184" lon="12.77037506238134"><ele>280.6666666666667</ele><time>2026-03-30T11:01:28.001Z</time></trkpt><trkpt lat="42.06450724972122" lon="12.770452489600345"><ele>281.0</ele><time>2026-03-30T11:01:29.001Z</time></trkpt><trkpt lat="42.064329766837616" lon="12.770537122099313"><ele>281.0</ele><time>2026-03-30T11:01:30.001Z</time></trkpt><trkpt lat="42.06415720533623" lon="12.77062233218151"><ele>281.0</ele><time>2026-03-30T11:01:31.001Z</time></trkpt><trkpt lat="42.06400575753103" lon="12.770703880828856"><ele>281.0</ele><time>2026-03-30T11:01:32.001Z</time></trkpt><trkpt lat="42.063856188404756" lon="12.77076188387189"><ele>280.0</ele><time>2026-03-30T11:01:33.001Z</time></trkpt><trkpt lat="42.06372404308941" lon="12.77082678736286"><ele>279.0</ele><time>2026-03-30T11:01:34.001Z</time></trkpt><trkpt lat="42.063596968054654" lon="12.770882158325168"><ele>278.0</ele><time>2026-03-30T11:01:35.001Z</time></trkpt><trkpt lat="42.063486233429636" lon="12.770917366939285"><ele>277.0</ele><time>2026-03-30T11:01:36.001Z</time></trkpt><trkpt lat="42.0633927572228" lon="12.770939228564153"><ele>277.0</ele><time>2026-03-30T11:01:37.001Z</time></trkpt><trkpt lat="42.06332766720954" lon="12.770962768867923"><ele>277.0</ele><time>2026-03-30T11:01:38.001Z</time></trkpt><trkpt lat="42.06325561799233" lon="12.770939856607889"><ele>277.0</ele><time>2026-03-30T11:01:39.001Z</time></trkpt><trkpt lat="42.06318438622053" lon="12.770873419025051"><ele>277.0</ele><time>2026-03-30T11:01:40.001Z</time></trkpt><trkpt lat="42.06313167278819" lon="12.770775103177106"><ele>277.0</ele><time>2026-03-30T11:01:41.001Z</time></trkpt><trkpt lat="42.06310688195947" lon="12.770629009412144"><ele>277.0</ele><time>2026-03-30T11:01:42.001Z</time></trkpt><trkpt lat="42.06310359908425" lon="12.770457314255067"><ele>275.75</ele><time>2026-03-30T11:01:43.001Z</time></trkpt><trkpt lat="42.063100604656384" lon="12.77026840249803"><ele>274.5</ele><time>2026-03-30T11:01:44.001Z</time></trkpt><trkpt lat="42.06309605655602" lon="12.770068516889488"><ele>273.25</ele><time>2026-03-30T11:01:45.001Z</time></trkpt><trkpt lat="42.063089551918985" lon="12.769868900402686"><ele>272.0</ele><time>2026-03-30T11:01:46.001Z</time></trkpt><trkpt lat="42.06309499956426" lon="12.769645493745145"><ele>270.33333333333337</ele><time>2026-03-30T11:01:47.001Z</time></trkpt><trkpt lat="42.06309374890962" lon="12.769404992837105"><ele>268.6666666666667</ele><time>2026-03-30T11:01:48.001Z</time></trkpt><trkpt lat="42.06308755065724" lon="12.769182117691427"><ele>267.0</ele><time>2026-03-30T11:01:49.001Z</time></trkpt><trkpt lat="42.063079690840105" lon="12.768964151532515"><ele>266.0</ele><time>2026-03-30T11:01:50.001Z</time></trkpt><trkpt lat="42.06307405791302" lon="12.768764168699555"><ele>265.0</ele><time>2026-03-30T11:01:51.001Z</time></trkpt><trkpt lat="42.063067538001306" lon="12.768557500586365"><ele>264.0</ele><time>2026-03-30T11:01:52.001Z</time></trkpt><trkpt lat="42.06306074317229" lon="12.768350497751836"><ele>263.75</ele><time>2026-03-30T11:01:53.001Z</time></trkpt><trkpt lat="42.06306022747254" lon="12.768149294976444"><ele>263.5</ele><time>2026-03-30T11:01:54.001Z</time></trkpt><trkpt lat="42.06305312486779" lon="12.767958041737648"><ele>263.25</ele><time>2026-03-30T11:01:55.002Z</time></trkpt><trkpt lat="42.06304779825263" lon="12.767797538162299"><ele>263.0</ele><time>2026-03-30T11:01:56.002Z</time></trkpt><trkpt lat="42.06304376109845" lon="12.767637872258693"><ele>263.0</ele><time>2026-03-30T11:01:57.002Z</time></trkpt><trkpt lat="42.063037662243794" lon="12.76748451157344"><ele>263.0</ele><time>2026-03-30T11:01:58.002Z</time></trkpt><trkpt lat="42.06303001266866" lon="12.767350662519949"><ele>263.0</ele><time>2026-03-30T11:01:59.002Z</time></trkpt><trkpt lat="42.0630136389164" lon="12.767237129478845"><ele>263.0</ele><time>2026-03-30T11:02:00.002Z</time></trkpt><trkpt lat="42.062997304451955" lon="12.76714193456556"><ele>263.0</ele><time>2026-03-30T11:02:01.002Z</time></trkpt><trkpt lat="42.06298473250601" lon="12.766994953716772"><ele>263.0</ele><time>2026-03-30T11:02:03.002Z</time></trkpt><trkpt lat="42.06286927697529" lon="12.766983661707055"><ele>263.0</ele><time>2026-03-30T11:02:04.002Z</time></trkpt><trkpt lat="42.06278106507251" lon="12.766985446218278"><ele>263.0</ele><time>2026-03-30T11:02:05.002Z</time></trkpt><trkpt lat="42.06267217065874" lon="12.767020841974082"><ele>263.0</ele><time>2026-03-30T11:02:06.002Z</time></trkpt><trkpt lat="42.062571456212005" lon="12.767078124206117"><ele>263.0</ele><time>2026-03-30T11:02:07.002Z</time></trkpt><trkpt lat="42.06247187761396" lon="12.767151849706943"><ele>262.0</ele><time>2026-03-30T11:02:08.002Z</time></trkpt><trkpt lat="42.062341252716436" lon="12.767184328029034"><ele>261.0</ele><time>2026-03-30T11:02:09.002Z</time></trkpt><trkpt lat="42.06220884891517" lon="12.767246772230418"><ele>260.0</ele><time>2026-03-30T11:02:10.002Z</time></trkpt><trkpt lat="42.06207271805379" lon="12.767310888497413"><ele>259.0</ele><time>2026-03-30T11:02:11.002Z</time></trkpt><trkpt lat="42.06193557852993" lon="12.767371536626152"><ele>259.0</ele><time>2026-03-30T11:02:12.001Z</time></trkpt><trkpt lat="42.061806572605654" lon="12.767422566669087"><ele>259.0</ele><time>2026-03-30T11:02:13.001Z</time></trkpt><trkpt lat="42.061674918548405" lon="12.767467856682668"><ele>259.0</ele><time>2026-03-30T11:02:14.001Z</time></trkpt><trkpt lat="42.061547446553696" lon="12.767505967165604"><ele>259.0</ele><time>2026-03-30T11:02:15.001Z</time></trkpt><trkpt lat="42.06142208276129" lon="12.767524665253314"><ele>257.25</ele><time>2026-03-30T11:02:16.001Z</time></trkpt><trkpt lat="42.06130322247809" lon="12.767497601458563"><ele>255.5</ele><time>2026-03-30T11:02:17.001Z</time></trkpt><trkpt lat="42.061180477276345" lon="12.767433012408233"><ele>253.75</ele><time>2026-03-30T11:02:18.001Z</time></trkpt><trkpt lat="42.06103152566685" lon="12.767354711847101"><ele>252.0</ele><time>2026-03-30T11:02:19.001Z</time></trkpt><trkpt lat="42.06086802732827" lon="12.767265137572963"><ele>250.33333333333331</ele><time>2026-03-30T11:02:20.001Z</time></trkpt><trkpt lat="42.060706920666014" lon="12.767176747992483"><ele>248.66666666666666</ele><time>2026-03-30T11:02:21.001Z</time></trkpt><trkpt lat="42.06055166657503" lon="12.767112599374686"><ele>247.0</ele><time>2026-03-30T11:02:22.001Z</time></trkpt><trkpt lat="42.06041940615379" lon="12.76702855459675"><ele>247.0</ele><time>2026-03-30T11:02:23.001Z</time></trkpt><trkpt lat="42.06028606528795" lon="12.766968271607983"><ele>247.0</ele><time>2026-03-30T11:02:24.001Z</time></trkpt><trkpt lat="42.06015091856557" lon="12.766942377896722"><ele>247.0</ele><time>2026-03-30T11:02:25.001Z</time></trkpt><trkpt lat="42.060003421644886" lon="12.76697079912918"><ele>247.0</ele><time>2026-03-30T11:02:26.001Z</time></trkpt><trkpt lat="42.05985015390174" lon="12.767039925198128"><ele>246.66666666666666</ele><time>2026-03-30T11:02:27.001Z</time></trkpt><trkpt lat="42.059691075433555" lon="12.767119761882423"><ele>246.33333333333331</ele><time>2026-03-30T11:02:28.001Z</time></trkpt><trkpt lat="42.05952903875138" lon="12.767200068378944"><ele>246.0</ele><time>2026-03-30T11:02:29.001Z</time></trkpt><trkpt lat="42.05936578846622" lon="12.767299058927296"><ele>246.0</ele><time>2026-03-30T11:02:30.001Z</time></trkpt><trkpt lat="42.059209137039886" lon="12.767417768242526"><ele>246.0</ele><time>2026-03-30T11:02:31.001Z</time></trkpt><trkpt lat="42.059063876446466" lon="12.76755172534072"><ele>246.0</ele><time>2026-03-30T11:02:32.001Z</time></trkpt><trkpt lat="42.05891644619235" lon="12.76767865248136"><ele>247.0</ele><time>2026-03-30T11:02:33.001Z</time></trkpt><trkpt lat="42.05877114492822" lon="12.767799244113954"><ele>248.0</ele><time>2026-03-30T11:02:34.001Z</time></trkpt><trkpt lat="42.05861094859302" lon="12.767895887676255"><ele>249.0</ele><time>2026-03-30T11:02:35.001Z</time></trkpt><trkpt lat="42.058453358431834" lon="12.768008389729413"><ele>249.0</ele><time>2026-03-30T11:02:36.001Z</time></trkpt><trkpt lat="42.05828919735919" lon="12.768123517698553"><ele>249.0</ele><time>2026-03-30T11:02:37.001Z</time></trkpt><trkpt lat="42.0581254607012" lon="12.768238021070601"><ele>249.0</ele><time>2026-03-30T11:02:38.001Z</time></trkpt><trkpt lat="42.057953748558774" lon="12.768357132513966"><ele>248.66666666666669</ele><time>2026-03-30T11:02:39.001Z</time></trkpt><trkpt lat="42.0577937083222" lon="12.768490046159936"><ele>248.33333333333334</ele><time>2026-03-30T11:02:40.001Z</time></trkpt><trkpt lat="42.05761700241853" lon="12.76858820590933"><ele>248.0</ele><time>2026-03-30T11:02:41.001Z</time></trkpt><trkpt lat="42.057448714272866" lon="12.768703330721971"><ele>247.33333333333334</ele><time>2026-03-30T11:02:42.001Z</time></trkpt><trkpt lat="42.05727886177298" lon="12.768812653227991"><ele>246.66666666666669</ele><time>2026-03-30T11:02:43.001Z</time></trkpt><trkpt lat="42.05711012047156" lon="12.768925212548076"><ele>246.0</ele><time>2026-03-30T11:02:44.001Z</time></trkpt><trkpt lat="42.056945427631945" lon="12.769045629939372"><ele>246.0</ele><time>2026-03-30T11:02:45.001Z</time></trkpt><trkpt lat="42.05677464679338" lon="12.769154319674602"><ele>246.0</ele><time>2026-03-30T11:02:46.001Z</time></trkpt><trkpt lat="42.05659971859555" lon="12.769260953934209"><ele>246.0</ele><time>2026-03-30T11:02:47.001Z</time></trkpt><trkpt lat="42.05643236347871" lon="12.769362971815399"><ele>246.33333333333331</ele><time>2026-03-30T11:02:48.001Z</time></trkpt><trkpt lat="42.05627318790596" lon="12.769483584367112"><ele>246.66666666666666</ele><time>2026-03-30T11:02:49.001Z</time></trkpt><trkpt lat="42.05611158968761" lon="12.769575992077494"><ele>247.0</ele><time>2026-03-30T11:02:50.001Z</time></trkpt><trkpt lat="42.05596250192109" lon="12.769665028630703"><ele>247.0</ele><time>2026-03-30T11:02:51.001Z</time></trkpt><trkpt lat="42.05580652990779" lon="12.769768401213629"><ele>247.0</ele><time>2026-03-30T11:02:52.001Z</time></trkpt><trkpt lat="42.05564717503821" lon="12.769876364712578"><ele>247.0</ele><time>2026-03-30T11:02:53.001Z</time></trkpt><trkpt lat="42.05547493754709" lon="12.769994176863065"><ele>244.66666666666666</ele><time>2026-03-30T11:02:54.001Z</time></trkpt><trkpt lat="42.055306154839876" lon="12.770111835509077"><ele>242.33333333333331</ele><time>2026-03-30T11:02:55.001Z</time></trkpt><trkpt lat="42.05512594046995" lon="12.770208810615006"><ele>240.0</ele><time>2026-03-30T11:02:56.001Z</time></trkpt><trkpt lat="42.05495071997624" lon="12.77031693474847"><ele>240.0</ele><time>2026-03-30T11:02:57.001Z</time></trkpt><trkpt lat="42.05477024175232" lon="12.770399965974695"><ele>240.0</ele><time>2026-03-30T11:02:58.001Z</time></trkpt><trkpt lat="42.0545791221655" lon="12.770461362051007"><ele>240.0</ele><time>2026-03-30T11:02:59.001Z</time></trkpt><trkpt lat="42.054383909676346" lon="12.770419936302773"><ele>240.0</ele><time>2026-03-30T11:03:00.001Z</time></trkpt><trkpt lat="42.05419188008628" lon="12.7703463335698"><ele>240.0</ele><time>2026-03-30T11:03:01.001Z</time></trkpt><trkpt lat="42.05400521997698" lon="12.770252188947252"><ele>240.0</ele><time>2026-03-30T11:03:02.001Z</time></trkpt><trkpt lat="42.05381724940426" lon="12.7701797807417"><ele>244.33333333333331</ele><time>2026-03-30T11:03:03.001Z</time></trkpt><trkpt lat="42.05364879904224" lon="12.77008772923846"><ele>248.66666666666666</ele><time>2026-03-30T11:03:04.001Z</time></trkpt><trkpt lat="42.05348374327714" lon="12.769996026332695"><ele>253.0</ele><time>2026-03-30T11:03:05.001Z</time></trkpt><trkpt lat="42.05333008895072" lon="12.769912870393226"><ele>257.3333333333333</ele><time>2026-03-30T11:03:06.001Z</time></trkpt><trkpt lat="42.05317321316343" lon="12.76985386893547"><ele>261.6666666666667</ele><time>2026-03-30T11:03:07.001Z</time></trkpt><trkpt lat="42.05299396141634" lon="12.769822791786504"><ele>266.0</ele><time>2026-03-30T11:03:08.001Z</time></trkpt><trkpt lat="42.05279250771071" lon="12.769799699767848"><ele>266.0</ele><time>2026-03-30T11:03:09.001Z</time></trkpt><trkpt lat="42.05258680842291" lon="12.769768558776283"><ele>266.0</ele><time>2026-03-30T11:03:10.001Z</time></trkpt><trkpt lat="42.052393398884504" lon="12.769732164483813"><ele>266.0</ele><time>2026-03-30T11:03:11.001Z</time></trkpt><trkpt lat="42.05222686726287" lon="12.769698239645681"><ele>266.0</ele><time>2026-03-30T11:03:12.001Z</time></trkpt><trkpt lat="42.052093569907875" lon="12.769661501087924"><ele>266.0</ele><time>2026-03-30T11:03:13.001Z</time></trkpt><trkpt lat="42.05196138826023" lon="12.769637203737918"><ele>266.0</ele><time>2026-03-30T11:03:14.001Z</time></trkpt><trkpt lat="42.051817491141506" lon="12.769601924602224"><ele>266.0</ele><time>2026-03-30T11:03:15.001Z</time></trkpt><trkpt lat="42.051655836526685" lon="12.769558377252155"><ele>265.75</ele><time>2026-03-30T11:03:16.001Z</time></trkpt><trkpt lat="42.051496605305125" lon="12.76952041882497"><ele>265.5</ele><time>2026-03-30T11:03:17.001Z</time></trkpt><trkpt lat="42.05135316075072" lon="12.769478365473491"><ele>265.25</ele><time>2026-03-30T11:03:18.001Z</time></trkpt><trkpt lat="42.05122014694656" lon="12.769437551484854"><ele>265.0</ele><time>2026-03-30T11:03:19.001Z</time></trkpt><trkpt lat="42.0511074778775" lon="12.769393159327603"><ele>266.75</ele><time>2026-03-30T11:03:20.001Z</time></trkpt><trkpt lat="42.05102150008229" lon="12.76932581631829"><ele>268.5</ele><time>2026-03-30T11:03:21.001Z</time></trkpt><trkpt lat="42.050934291485724" lon="12.769231214535708"><ele>270.25</ele><time>2026-03-30T11:03:22.001Z</time></trkpt><trkpt lat="42.05086302865759" lon="12.76910450827308"><ele>272.0</ele><time>2026-03-30T11:03:23.001Z</time></trkpt><trkpt lat="42.05077234383137" lon="12.768980308884483"><ele>273.6666666666667</ele><time>2026-03-30T11:03:24.001Z</time></trkpt><trkpt lat="42.05065233275309" lon="12.768854783795852"><ele>275.3333333333333</ele><time>2026-03-30T11:03:25.001Z</time></trkpt><trkpt lat="42.05052561120515" lon="12.768743153299416"><ele>277.0</ele><time>2026-03-30T11:03:26.001Z</time></trkpt><trkpt lat="42.05038436396062" lon="12.768658107719773"><ele>277.0</ele><time>2026-03-30T11:03:27.001Z</time></trkpt><trkpt lat="42.05022786738312" lon="12.768615789001041"><ele>277.0</ele><time>2026-03-30T11:03:28.001Z</time></trkpt><trkpt lat="42.05007289350372" lon="12.768569734225975"><ele>277.0</ele><time>2026-03-30T11:03:29.001Z</time></trkpt><trkpt lat="42.04992592723514" lon="12.76850677104438"><ele>274.0</ele><time>2026-03-30T11:03:30.001Z</time></trkpt><trkpt lat="42.049781724757295" lon="12.768419301499755"><ele>271.0</ele><time>2026-03-30T11:03:31.001Z</time></trkpt><trkpt lat="42.04963837644823" lon="12.768308719916261"><ele>268.0</ele><time>2026-03-30T11:03:32.001Z</time></trkpt><trkpt lat="42.04949160266721" lon="12.768176332010855"><ele>268.0</ele><time>2026-03-30T11:03:33.001Z</time></trkpt><trkpt lat="42.04934913032172" lon="12.768039215539584"><ele>268.0</ele><time>2026-03-30T11:03:34.001Z</time></trkpt><trkpt lat="42.049203420892034" lon="12.767886734543831"><ele>268.0</ele><time>2026-03-30T11:03:35.001Z</time></trkpt><trkpt lat="42.049053950209206" lon="12.76773313330452"><ele>263.3333333333333</ele><time>2026-03-30T11:03:36.001Z</time></trkpt><trkpt lat="42.0488980420262" lon="12.767591081271572"><ele>258.6666666666667</ele><time>2026-03-30T11:03:37.001Z</time></trkpt><trkpt lat="42.04872391622184" lon="12.767468462360139"><ele>254.0</ele><time>2026-03-30T11:03:38.001Z</time></trkpt><trkpt lat="42.04854861516169" lon="12.76731161176324"><ele>254.0</ele><time>2026-03-30T11:03:39.001Z</time></trkpt><trkpt lat="42.04836195452762" lon="12.767151380567137"><ele>254.0</ele><time>2026-03-30T11:03:40.001Z</time></trkpt><trkpt lat="42.048179576852355" lon="12.767014297044796"><ele>254.0</ele><time>2026-03-30T11:03:41.001Z</time></trkpt><trkpt lat="42.04801389025202" lon="12.766903903095045"><ele>255.33333333333334</ele><time>2026-03-30T11:03:42.001Z</time></trkpt><trkpt lat="42.04786821405652" lon="12.766775979907116"><ele>256.6666666666667</ele><time>2026-03-30T11:03:43.001Z</time></trkpt><trkpt lat="42.04771961229919" lon="12.766653307424242"><ele>258.0</ele><time>2026-03-30T11:03:44.001Z</time></trkpt><trkpt lat="42.04757799125903" lon="12.766486797481456"><ele>257.0</ele><time>2026-03-30T11:03:45.001Z</time></trkpt><trkpt lat="42.04744521177608" lon="12.766319868809475"><ele>256.0</ele><time>2026-03-30T11:03:46.001Z</time></trkpt><trkpt lat="42.047314150229774" lon="12.766161935948828"><ele>255.0</ele><time>2026-03-30T11:03:47.001Z</time></trkpt><trkpt lat="42.04720205797621" lon="12.766031422476946"><ele>257.0</ele><time>2026-03-30T11:03:48.001Z</time></trkpt><trkpt lat="42.04710250764256" lon="12.765921856352241"><ele>259.0</ele><time>2026-03-30T11:03:49.001Z</time></trkpt><trkpt lat="42.046995798369394" lon="12.76584773632143"><ele>261.0</ele><time>2026-03-30T11:03:50.001Z</time></trkpt><trkpt lat="42.04686755073445" lon="12.765777864002759"><ele>263.0</ele><time>2026-03-30T11:03:51.001Z</time></trkpt><trkpt lat="42.04670794781229" lon="12.76577582621405"><ele>264.6666666666667</ele><time>2026-03-30T11:03:52.001Z</time></trkpt><trkpt lat="42.04654009331852" lon="12.76580577171943"><ele>266.3333333333333</ele><time>2026-03-30T11:03:53.001Z</time></trkpt><trkpt lat="42.046375045287455" lon="12.76579918992282"><ele>268.0</ele><time>2026-03-30T11:03:54.001Z</time></trkpt><trkpt lat="42.04622128221623" lon="12.765798547945732"><ele>268.0</ele><time>2026-03-30T11:03:55.001Z</time></trkpt><trkpt lat="42.04609255746709" lon="12.765787361366057"><ele>268.0</ele><time>2026-03-30T11:03:56.001Z</time></trkpt><trkpt lat="42.04599723514471" lon="12.76579185250859"><ele>268.0</ele><time>2026-03-30T11:03:57.001Z</time></trkpt><trkpt lat="42.04591829157919" lon="12.765743584017265"><ele>268.0</ele><time>2026-03-30T11:03:58.001Z</time></trkpt><trkpt lat="42.04584311341497" lon="12.765684218549806"><ele>268.0</ele><time>2026-03-30T11:03:59.001Z</time></trkpt><trkpt lat="42.04576115106307" lon="12.765570009747387"><ele>267.5</ele><time>2026-03-30T11:04:00.001Z</time></trkpt><trkpt lat="42.04564875772854" lon="12.765471657647165"><ele>267.0</ele><time>2026-03-30T11:04:01.002Z</time></trkpt><trkpt lat="42.04551543495551" lon="12.765395941594178"><ele>266.5</ele><time>2026-03-30T11:04:02.002Z</time></trkpt><trkpt lat="42.045364011405105" lon="12.765308739085043"><ele>266.0</ele><time>2026-03-30T11:04:03.002Z</time></trkpt><trkpt lat="42.04520063299369" lon="12.765217768789608"><ele>264.33333333333337</ele><time>2026-03-30T11:04:04.002Z</time></trkpt><trkpt lat="42.04503176718494" lon="12.765117355797"><ele>262.6666666666667</ele><time>2026-03-30T11:04:05.002Z</time></trkpt><trkpt lat="42.04486688748207" lon="12.765005423064197"><ele>261.0</ele><time>2026-03-30T11:04:06.002Z</time></trkpt><trkpt lat="42.0447090399153" lon="12.764877796654517"><ele>257.6666666666667</ele><time>2026-03-30T11:04:07.002Z</time></trkpt><trkpt lat="42.04454333251098" lon="12.764748807659084"><ele>254.33333333333334</ele><time>2026-03-30T11:04:08.002Z</time></trkpt><trkpt lat="42.044377974499305" lon="12.764696006676795"><ele>251.0</ele><time>2026-03-30T11:04:09.002Z</time></trkpt><trkpt lat="42.04426273528542" lon="12.764658029621687"><ele>251.00000000000003</ele><time>2026-03-30T11:04:10.002Z</time></trkpt><trkpt lat="42.04417778123656" lon="12.764589712571556"><ele>251.0</ele><time>2026-03-30T11:04:11.001Z</time></trkpt><trkpt lat="42.044104087876875" lon="12.764546236566325"><ele>251.0</ele><time>2026-03-30T11:04:12.001Z</time></trkpt><trkpt lat="42.044019917996295" lon="12.764507158807463"><ele>251.0</ele><time>2026-03-30T11:04:14.001Z</time></trkpt><trkpt lat="42.04410037184448" lon="12.764544044185714"><ele>251.00000000000003</ele><time>2026-03-30T11:04:22.001Z</time></trkpt><trkpt lat="42.04416625084958" lon="12.764582909478936"><ele>251.0</ele><time>2026-03-30T11:04:23.001Z</time></trkpt><trkpt lat="42.04429895759739" lon="12.76465253491679"><ele>250.99999999999997</ele><time>2026-03-30T11:04:25.001Z</time></trkpt><trkpt lat="42.04436389120901" lon="12.764685198011026"><ele>251.0</ele><time>2026-03-30T11:04:26.001Z</time></trkpt><trkpt lat="42.04442703025522" lon="12.76470450338174"><ele>250.99999999999997</ele><time>2026-03-30T11:04:27.001Z</time></trkpt><trkpt lat="42.04448848488205" lon="12.764730171355055"><ele>250.99999999999997</ele><time>2026-03-30T11:04:28.001Z</time></trkpt><trkpt lat="42.04455471383177" lon="12.764757833146884"><ele>251.0</ele><time>2026-03-30T11:04:29.001Z</time></trkpt><trkpt lat="42.044626306637724" lon="12.764795671466372"><ele>250.99999999999997</ele><time>2026-03-30T11:04:30.001Z</time></trkpt><trkpt lat="42.04471333554575" lon="12.764854744779088"><ele>250.99999999999997</ele><time>2026-03-30T11:04:31.001Z</time></trkpt><trkpt lat="42.04481424848873" lon="12.764984001185972"><ele>251.0</ele><time>2026-03-30T11:04:32.001Z</time></trkpt><trkpt lat="42.04489096751892" lon="12.765076991628494"><ele>251.00000000000003</ele><time>2026-03-30T11:04:34.001Z</time></trkpt><trkpt lat="42.045014091548836" lon="12.765141848592448"><ele>251.00000000000003</ele><time>2026-03-30T11:04:36.001Z</time></trkpt><trkpt lat="42.0450836245785" lon="12.765189391334813"><ele>251.0</ele><time>2026-03-30T11:04:37.001Z</time></trkpt><trkpt lat="42.04516177179141" lon="12.765234642415791"><ele>251.0</ele><time>2026-03-30T11:04:38.001Z</time></trkpt><trkpt lat="42.04524897762988" lon="12.765278679099723"><ele>253.50000000000003</ele><time>2026-03-30T11:04:39.001Z</time></trkpt><trkpt lat="42.04533086269235" lon="12.765323402663444"><ele>256.0</ele><time>2026-03-30T11:04:40.001Z</time></trkpt><trkpt lat="42.04541455061307" lon="12.765370007907036"><ele>258.5</ele><time>2026-03-30T11:04:41.001Z</time></trkpt><trkpt lat="42.045496063660686" lon="12.765414282191923"><ele>261.0</ele><time>2026-03-30T11:04:42.001Z</time></trkpt><trkpt lat="42.04557600286671" lon="12.765447278846247"><ele>263.5</ele><time>2026-03-30T11:04:43.001Z</time></trkpt><trkpt lat="42.04564831021174" lon="12.765476287841707"><ele>266.0</ele><time>2026-03-30T11:04:44.001Z</time></trkpt><trkpt lat="42.04571877979731" lon="12.765527262081509"><ele>266.0</ele><time>2026-03-30T11:04:45.001Z</time></trkpt><trkpt lat="42.04583960461146" lon="12.765665762175816"><ele>266.0</ele><time>2026-03-30T11:04:47.001Z</time></trkpt><trkpt lat="42.04588981273307" lon="12.765734349163749"><ele>266.0</ele><time>2026-03-30T11:04:48.001Z</time></trkpt><trkpt lat="42.04589052165229" lon="12.765824812962483"><ele>266.0</ele><time>2026-03-30T11:04:51.001Z</time></trkpt><trkpt lat="42.04580079617195" lon="12.765834683051285"><ele>266.0</ele><time>2026-03-30T11:04:54.001Z</time></trkpt><trkpt lat="42.04573433154297" lon="12.765799936228714"><ele>266.0</ele><time>2026-03-30T11:04:55.001Z</time></trkpt><trkpt lat="42.045661666942905" lon="12.765807235707861"><ele>266.0</ele><time>2026-03-30T11:04:56.001Z</time></trkpt><trkpt lat="42.045601307454405" lon="12.76584300455501"><ele>266.0</ele><time>2026-03-30T11:04:57.001Z</time></trkpt><trkpt lat="42.04555262024345" lon="12.765898827920562"><ele>266.0</ele><time>2026-03-30T11:04:58.001Z</time></trkpt><trkpt lat="42.0455182564611" lon="12.76597219920131"><ele>266.0</ele><time>2026-03-30T11:04:59.001Z</time></trkpt><trkpt lat="42.04548978908833" lon="12.76611442316719"><ele>266.0</ele><time>2026-03-30T11:05:01.001Z</time></trkpt><trkpt lat="42.04543529805813" lon="12.766178913451894"><ele>266.0</ele><time>2026-03-30T11:05:03.001Z</time></trkpt><trkpt lat="42.04534755819512" lon="12.766229994426013"><ele>266.6666666666667</ele><time>2026-03-30T11:05:05.001Z</time></trkpt><trkpt lat="42.04528134478192" lon="12.766264681466335"><ele>267.33333333333337</ele><time>2026-03-30T11:05:06.001Z</time></trkpt><trkpt lat="42.04520175556973" lon="12.766289840873009"><ele>268.0</ele><time>2026-03-30T11:05:07.001Z</time></trkpt><trkpt lat="42.045120880505934" lon="12.766338001973653"><ele>268.6666666666667</ele><time>2026-03-30T11:05:08.001Z</time></trkpt><trkpt lat="42.045038000865965" lon="12.76638735654914"><ele>269.3333333333333</ele><time>2026-03-30T11:05:09.001Z</time></trkpt><trkpt lat="42.04494695734874" lon="12.766446046127095"><ele>270.0</ele><time>2026-03-30T11:05:10.001Z</time></trkpt><trkpt lat="42.04487041231465" lon="12.766519451601424"><ele>268.6666666666667</ele><time>2026-03-30T11:05:11.001Z</time></trkpt><trkpt lat="42.0447911872037" lon="12.766576097010992"><ele>267.3333333333333</ele><time>2026-03-30T11:05:12.001Z</time></trkpt><trkpt lat="42.04471297836439" lon="12.76661898373376"><ele>266.0</ele><time>2026-03-30T11:05:13.001Z</time></trkpt><trkpt lat="42.04463162757619" lon="12.766656295228852"><ele>264.66666666666663</ele><time>2026-03-30T11:05:14.001Z</time></trkpt><trkpt lat="42.044548073659236" lon="12.766686926966413"><ele>263.3333333333333</ele><time>2026-03-30T11:05:15.001Z</time></trkpt><trkpt lat="42.0444720047167" lon="12.766714891338847"><ele>262.0</ele><time>2026-03-30T11:05:16.001Z</time></trkpt><trkpt lat="42.04440390896167" lon="12.766759532766855"><ele>262.0</ele><time>2026-03-30T11:05:17.001Z</time></trkpt><trkpt lat="42.044340272154486" lon="12.76680950504561"><ele>262.0</ele><time>2026-03-30T11:05:18.001Z</time></trkpt><trkpt lat="42.04428395959315" lon="12.76687579514127"><ele>262.0</ele><time>2026-03-30T11:05:19.001Z</time></trkpt><trkpt lat="42.04423615779493" lon="12.766944941576744"><ele>262.0</ele><time>2026-03-30T11:05:20.001Z</time></trkpt><trkpt lat="42.044139654759256" lon="12.767015076101892"><ele>262.0</ele><time>2026-03-30T11:05:22.001Z</time></trkpt><trkpt lat="42.04403954892565" lon="12.76694415531041"><ele>262.0</ele><time>2026-03-30T11:05:24.001Z</time></trkpt><trkpt lat="42.04396870013834" lon="12.766928101082001"><ele>262.0</ele><time>2026-03-30T11:05:25.001Z</time></trkpt><trkpt lat="42.04389784521811" lon="12.766919064136491"><ele>262.0</ele><time>2026-03-30T11:05:26.001Z</time></trkpt><trkpt lat="42.0438217378134" lon="12.7669164201175"><ele>262.0</ele><time>2026-03-30T11:05:27.001Z</time></trkpt><trkpt lat="42.04374177601122" lon="12.766916582133293"><ele>262.0</ele><time>2026-03-30T11:05:28.001Z</time></trkpt><trkpt lat="42.043662232034166" lon="12.766921273491942"><ele>262.0</ele><time>2026-03-30T11:05:29.001Z</time></trkpt><trkpt lat="42.04358995349846" lon="12.766930512337607"><ele>262.0</ele><time>2026-03-30T11:05:30.001Z</time></trkpt><trkpt lat="42.043514695853624" lon="12.766946586052669"><ele>262.0</ele><time>2026-03-30T11:05:31.001Z</time></trkpt><trkpt lat="42.04344966857134" lon="12.766963510238835"><ele>262.0</ele><time>2026-03-30T11:05:32.001Z</time></trkpt><trkpt lat="42.04337593806654" lon="12.766982799454517"><ele>262.0</ele><time>2026-03-30T11:05:33.001Z</time></trkpt><trkpt lat="42.04331187221237" lon="12.767000271566133"><ele>262.0</ele><time>2026-03-30T11:05:34.001Z</time></trkpt><trkpt lat="42.04323769030852" lon="12.767021694382526"><ele>262.0</ele><time>2026-03-30T11:05:35.001Z</time></trkpt><trkpt lat="42.0431618632848" lon="12.767042717725325"><ele>262.0</ele><time>2026-03-30T11:05:36.001Z</time></trkpt><trkpt lat="42.0430952347189" lon="12.767055182689901"><ele>262.0</ele><time>2026-03-30T11:05:37.001Z</time></trkpt><trkpt lat="42.04302718106867" lon="12.767084041020563"><ele>259.4</ele><time>2026-03-30T11:05:38.001Z</time></trkpt><trkpt lat="42.042907932760606" lon="12.767080849573752"><ele>256.79999999999995</ele><time>2026-03-30T11:05:40.001Z</time></trkpt><trkpt lat="42.04283168299336" lon="12.766989304349764"><ele>254.2</ele><time>2026-03-30T11:05:42.001Z</time></trkpt><trkpt lat="42.04275819244084" lon="12.766844279353373"><ele>251.6</ele><time>2026-03-30T11:05:44.001Z</time></trkpt><trkpt lat="42.04269775887107" lon="12.766793061716426"><ele>249.0</ele><time>2026-03-30T11:05:45.001Z</time></trkpt><trkpt lat="42.042619748591804" lon="12.766775993130835"><ele>248.5</ele><time>2026-03-30T11:05:46.001Z</time></trkpt><trkpt lat="42.04254726763396" lon="12.766736995280127"><ele>248.0</ele><time>2026-03-30T11:05:47.001Z</time></trkpt><trkpt lat="42.04246447925887" lon="12.766711634860885"><ele>247.5</ele><time>2026-03-30T11:05:48.001Z</time></trkpt><trkpt lat="42.042373213154754" lon="12.766697464682123"><ele>247.0</ele><time>2026-03-30T11:05:49.001Z</time></trkpt><trkpt lat="42.04230144382735" lon="12.766708367494696"><ele>246.5</ele><time>2026-03-30T11:05:50.001Z</time></trkpt><trkpt lat="42.042235605588836" lon="12.766700116471023"><ele>246.0</ele><time>2026-03-30T11:05:51.001Z</time></trkpt><trkpt lat="42.04217095058084" lon="12.766690734881271"><ele>245.16666666666666</ele><time>2026-03-30T11:05:52.001Z</time></trkpt><trkpt lat="42.04209900551961" lon="12.766692487731191"><ele>244.33333333333331</ele><time>2026-03-30T11:05:53.001Z</time></trkpt><trkpt lat="42.042016732425125" lon="12.76666284860203"><ele>243.5</ele><time>2026-03-30T11:05:54.001Z</time></trkpt><trkpt lat="42.04193157878818" lon="12.766656483537112"><ele>242.66666666666666</ele><time>2026-03-30T11:05:55.001Z</time></trkpt><trkpt lat="42.04184434602362" lon="12.766650522026957"><ele>241.83333333333331</ele><time>2026-03-30T11:05:56.001Z</time></trkpt><trkpt lat="42.041768495004234" lon="12.766645042181656"><ele>241.0</ele><time>2026-03-30T11:05:57.001Z</time></trkpt><trkpt lat="42.04168835047344" lon="12.766649479764705"><ele>241.16666666666666</ele><time>2026-03-30T11:05:58.001Z</time></trkpt><trkpt lat="42.041618218342634" lon="12.766616734756814"><ele>241.33333333333331</ele><time>2026-03-30T11:05:59.001Z</time></trkpt><trkpt lat="42.041542168736065" lon="12.766615993526656"><ele>241.5</ele><time>2026-03-30T11:06:00.001Z</time></trkpt><trkpt lat="42.04147093945006" lon="12.766590339632101"><ele>241.66666666666669</ele><time>2026-03-30T11:06:01.001Z</time></trkpt><trkpt lat="42.04140787572762" lon="12.766600392666735"><ele>241.83333333333334</ele><time>2026-03-30T11:06:02.001Z</time></trkpt><trkpt lat="42.04130411816278" lon="12.766598296557447"><ele>242.0</ele><time>2026-03-30T11:06:04.001Z</time></trkpt><trkpt lat="42.0412137238304" lon="12.766519512105793"><ele>242.0</ele><time>2026-03-30T11:06:06.001Z</time></trkpt><trkpt lat="42.04111907135723" lon="12.76648938266514"><ele>242.0</ele><time>2026-03-30T11:06:08.001Z</time></trkpt><trkpt lat="42.04102498040377" lon="12.7665180343014"><ele>242.0</ele><time>2026-03-30T11:06:10.001Z</time></trkpt><trkpt lat="42.04095826960719" lon="12.766526505573374"><ele>242.0</ele><time>2026-03-30T11:06:12.001Z</time></trkpt><trkpt lat="42.040883320451925" lon="12.76652901865191"><ele>242.0</ele><time>2026-03-30T11:06:14.001Z</time></trkpt><trkpt lat="42.04076436397649" lon="12.76651423995079"><ele>241.28571428571428</ele><time>2026-03-30T11:06:16.001Z</time></trkpt><trkpt lat="42.040696889184844" lon="12.766503051425968"><ele>240.57142857142856</ele><time>2026-03-30T11:06:17.001Z</time></trkpt><trkpt lat="42.040621784322674" lon="12.766492605902751"><ele>239.85714285714283</ele><time>2026-03-30T11:06:18.001Z</time></trkpt><trkpt lat="42.04054377740728" lon="12.76648501587206"><ele>239.1428571428571</ele><time>2026-03-30T11:06:19.001Z</time></trkpt><trkpt lat="42.04045891263159" lon="12.766480796074951"><ele>238.42857142857142</ele><time>2026-03-30T11:06:20.001Z</time></trkpt><trkpt lat="42.04038936685833" lon="12.766478697734613"><ele>237.71428571428567</ele><time>2026-03-30T11:06:21.001Z</time></trkpt><trkpt lat="42.04032501360827" lon="12.766477220900029"><ele>236.99999999999997</ele><time>2026-03-30T11:06:22.001Z</time></trkpt><trkpt lat="42.04023846610061" lon="12.766475234724766"><ele>237.0</ele><time>2026-03-30T11:06:24.001Z</time></trkpt><trkpt lat="42.04015347378253" lon="12.766473284238575"><ele>237.0</ele><time>2026-03-30T11:06:27.001Z</time></trkpt><trkpt lat="42.040087911634856" lon="12.766471779646535"><ele>237.0</ele><time>2026-03-30T11:06:29.001Z</time></trkpt><trkpt lat="42.040003638063396" lon="12.76646691462899"><ele>237.0</ele><time>2026-03-30T11:06:31.001Z</time></trkpt><trkpt lat="42.03991099919222" lon="12.76646170149062"><ele>237.0</ele><time>2026-03-30T11:06:33.001Z</time></trkpt><trkpt lat="42.03979399300713" lon="12.76645491030621"><ele>237.0</ele><time>2026-03-30T11:06:35.001Z</time></trkpt><trkpt lat="42.03970188244605" lon="12.766467271426068"><ele>236.33333333333334</ele><time>2026-03-30T11:06:37.001Z</time></trkpt><trkpt lat="42.03959204698113" lon="12.766463195345885"><ele>235.66666666666669</ele><time>2026-03-30T11:06:39.001Z</time></trkpt><trkpt lat="42.03952784899362" lon="12.766439688740178"><ele>235.0</ele><time>2026-03-30T11:06:40.001Z</time></trkpt><trkpt lat="42.03942765913011" lon="12.76643843153206"><ele>234.33333333333334</ele><time>2026-03-30T11:06:42.001Z</time></trkpt><trkpt lat="42.03935812002326" lon="12.766435868871444"><ele>233.66666666666669</ele><time>2026-03-30T11:06:43.001Z</time></trkpt><trkpt lat="42.03928995009243" lon="12.766420399127313"><ele>233.0</ele><time>2026-03-30T11:06:44.001Z</time></trkpt><trkpt lat="42.0391905330521" lon="12.766413461080065"><ele>232.28571428571428</ele><time>2026-03-30T11:06:46.001Z</time></trkpt><trkpt lat="42.03912742256514" lon="12.766398436344753"><ele>231.57142857142856</ele><time>2026-03-30T11:06:47.001Z</time></trkpt><trkpt lat="42.03905313350731" lon="12.766373742485017"><ele>230.85714285714283</ele><time>2026-03-30T11:06:48.001Z</time></trkpt><trkpt lat="42.03898878875743" lon="12.766363330096768"><ele>230.14285714285714</ele><time>2026-03-30T11:06:49.001Z</time></trkpt><trkpt lat="42.03891701766368" lon="12.766372496123752"><ele>229.4285714285714</ele><time>2026-03-30T11:06:50.001Z</time></trkpt><trkpt lat="42.03885301071292" lon="12.76635025306961"><ele>228.7142857142857</ele><time>2026-03-30T11:06:51.001Z</time></trkpt><trkpt lat="42.03878896576937" lon="12.76634387770981"><ele>228.0</ele><time>2026-03-30T11:06:52.001Z</time></trkpt><trkpt lat="42.03872264155729" lon="12.766344222425339"><ele>228.0</ele><time>2026-03-30T11:06:53.001Z</time></trkpt><trkpt lat="42.03865140547276" lon="12.766318812247464"><ele>228.0</ele><time>2026-03-30T11:06:54.001Z</time></trkpt><trkpt lat="42.03856908654285" lon="12.766334005471943"><ele>228.0</ele><time>2026-03-30T11:06:55.001Z</time></trkpt><trkpt lat="42.03847875731515" lon="12.766332877166732"><ele>228.0</ele><time>2026-03-30T11:06:56.001Z</time></trkpt><trkpt lat="42.0383801192804" lon="12.766316144511578"><ele>228.0</ele><time>2026-03-30T11:06:57.001Z</time></trkpt><trkpt lat="42.038301735847675" lon="12.766318201821397"><ele>228.0</ele><time>2026-03-30T11:06:58.001Z</time></trkpt><trkpt lat="42.0382166426336" lon="12.766334543893338"><ele>228.2</ele><time>2026-03-30T11:06:59.001Z</time></trkpt><trkpt lat="42.03812436397305" lon="12.766336905017898"><ele>228.4</ele><time>2026-03-30T11:07:00.001Z</time></trkpt><trkpt lat="42.038028582570625" lon="12.76634005624005"><ele>228.59999999999997</ele><time>2026-03-30T11:07:01.001Z</time></trkpt><trkpt lat="42.03792961017783" lon="12.766328149844654"><ele>228.79999999999998</ele><time>2026-03-30T11:07:02.001Z</time></trkpt><trkpt lat="42.037842829186204" lon="12.766337347837634"><ele>229.0</ele><time>2026-03-30T11:07:03.001Z</time></trkpt><trkpt lat="42.037752173383666" lon="12.766371206983669"><ele>228.99999999999997</ele><time>2026-03-30T11:07:04.001Z</time></trkpt><trkpt lat="42.03766300265936" lon="12.766392962348124"><ele>229.0</ele><time>2026-03-30T11:07:05.001Z</time></trkpt><trkpt lat="42.037573179460516" lon="12.766402839468247"><ele>229.0</ele><time>2026-03-30T11:07:06.001Z</time></trkpt><trkpt lat="42.03749039807199" lon="12.76642723504341"><ele>229.0</ele><time>2026-03-30T11:07:07.001Z</time></trkpt><trkpt lat="42.037411318121826" lon="12.766472130136473"><ele>228.99999999999997</ele><time>2026-03-30T11:07:08.001Z</time></trkpt><trkpt lat="42.0373306667932" lon="12.766490531685971"><ele>229.0</ele><time>2026-03-30T11:07:09.001Z</time></trkpt><trkpt lat="42.037253288910236" lon="12.766516629998344"><ele>229.16666666666666</ele><time>2026-03-30T11:07:10.001Z</time></trkpt><trkpt lat="42.037179514646645" lon="12.766534401239733"><ele>229.33333333333331</ele><time>2026-03-30T11:07:11.001Z</time></trkpt><trkpt lat="42.037116072183444" lon="12.766542639915048"><ele>229.5</ele><time>2026-03-30T11:07:12.001Z</time></trkpt><trkpt lat="42.03702639472092" lon="12.766571652207272"><ele>229.66666666666669</ele><time>2026-03-30T11:07:13.001Z</time></trkpt><trkpt lat="42.03694041986443" lon="12.766567896058719"><ele>229.83333333333334</ele><time>2026-03-30T11:07:14.001Z</time></trkpt><trkpt lat="42.03686570521112" lon="12.766574742595534"><ele>230.0</ele><time>2026-03-30T11:07:15.001Z</time></trkpt><trkpt lat="42.036747877532704" lon="12.766561736466004"><ele>230.0</ele><time>2026-03-30T11:07:17.001Z</time></trkpt><trkpt lat="42.036643714253245" lon="12.766552298630225"><ele>230.0</ele><time>2026-03-30T11:07:19Z</time></trkpt><trkpt lat="42.036542332276795" lon="12.766537842037074"><ele>230.0</ele><time>2026-03-30T11:07:21Z</time></trkpt><trkpt lat="42.03641822883688" lon="12.766541537183643"><ele>230.0</ele><time>2026-03-30T11:07:23Z</time></trkpt><trkpt lat="42.03634459714276" lon="12.766552254746742"><ele>230.0</ele><time>2026-03-30T11:07:24Z</time></trkpt><trkpt lat="42.03627351230099" lon="12.766576580994592"><ele>228.2</ele><time>2026-03-30T11:07:25Z</time></trkpt><trkpt lat="42.036210505252896" lon="12.766591580627393"><ele>226.4</ele><time>2026-03-30T11:07:26Z</time></trkpt><trkpt lat="42.03610090046928" lon="12.766603041129276"><ele>224.60000000000002</ele><time>2026-03-30T11:07:28Z</time></trkpt><trkpt lat="42.03599899089787" lon="12.766620444194277"><ele>222.8</ele><time>2026-03-30T11:07:30Z</time></trkpt><trkpt lat="42.035902290113626" lon="12.766637267420283"><ele>221.0</ele><time>2026-03-30T11:07:32Z</time></trkpt><trkpt lat="42.03580853764956" lon="12.766648926270847"><ele>220.00000000000003</ele><time>2026-03-30T11:07:34Z</time></trkpt><trkpt lat="42.03568462065848" lon="12.766662427863423"><ele>219.0</ele><time>2026-03-30T11:07:36Z</time></trkpt><trkpt lat="42.0356002662834" lon="12.766683732867964"><ele>218.0</ele><time>2026-03-30T11:07:37Z</time></trkpt><trkpt lat="42.03552795354844" lon="12.766683771493641"><ele>217.0</ele><time>2026-03-30T11:07:38Z</time></trkpt><trkpt lat="42.03546101101965" lon="12.766713705933585"><ele>216.00000000000003</ele><time>2026-03-30T11:07:39Z</time></trkpt><trkpt lat="42.035401185241206" lon="12.76674194326111"><ele>215.0</ele><time>2026-03-30T11:07:40Z</time></trkpt><trkpt lat="42.03533424988769" lon="12.766758957900516"><ele>215.00000000000003</ele><time>2026-03-30T11:07:42Z</time></trkpt><trkpt lat="42.035264719372705" lon="12.766754597115987"><ele>215.0</ele><time>2026-03-30T11:07:44Z</time></trkpt><trkpt lat="42.035180227477824" lon="12.766740710946735"><ele>215.0</ele><time>2026-03-30T11:07:47Z</time></trkpt><trkpt lat="42.035092190052715" lon="12.766710224947264"><ele>215.0</ele><time>2026-03-30T11:07:49Z</time></trkpt><trkpt lat="42.03498710747719" lon="12.76667409286365"><ele>215.00000000000003</ele><time>2026-03-30T11:07:51Z</time></trkpt><trkpt lat="42.03491375856834" lon="12.766656173634575"><ele>215.0</ele><time>2026-03-30T11:07:52Z</time></trkpt><trkpt lat="42.03483688381079" lon="12.766639437785582"><ele>215.14285714285714</ele><time>2026-03-30T11:07:53Z</time></trkpt><trkpt lat="42.03476519651635" lon="12.766628861426982"><ele>215.2857142857143</ele><time>2026-03-30T11:07:54Z</time></trkpt><trkpt lat="42.034694224267426" lon="12.766623365140642"><ele>215.42857142857144</ele><time>2026-03-30T11:07:55Z</time></trkpt><trkpt lat="42.03462725015025" lon="12.766636374407252"><ele>215.57142857142856</ele><time>2026-03-30T11:07:56Z</time></trkpt><trkpt lat="42.0345678118436" lon="12.766680120443173"><ele>215.71428571428572</ele><time>2026-03-30T11:07:57Z</time></trkpt><trkpt lat="42.03449979631316" lon="12.766709959191497"><ele>215.85714285714286</ele><time>2026-03-30T11:07:58Z</time></trkpt><trkpt lat="42.03443285738312" lon="12.766747454142108"><ele>216.0</ele><time>2026-03-30T11:07:59Z</time></trkpt><trkpt lat="42.03436363608801" lon="12.766783019095797"><ele>216.0</ele><time>2026-03-30T11:08:00Z</time></trkpt><trkpt lat="42.034304675017374" lon="12.766825836033624"><ele>216.0</ele><time>2026-03-30T11:08:01Z</time></trkpt><trkpt lat="42.03418996521432" lon="12.766846620279987"><ele>216.0</ele><time>2026-03-30T11:08:03Z</time></trkpt><trkpt lat="42.03412261341854" lon="12.766849010445638"><ele>216.0</ele><time>2026-03-30T11:08:04Z</time></trkpt><trkpt lat="42.03405660190855" lon="12.7668566521737"><ele>216.0</ele><time>2026-03-30T11:08:05Z</time></trkpt><trkpt lat="42.033990620512235" lon="12.766862228551714"><ele>216.0</ele><time>2026-03-30T11:08:06Z</time></trkpt><trkpt lat="42.033925559901085" lon="12.766883950111403"><ele>216.0</ele><time>2026-03-30T11:08:07Z</time></trkpt><trkpt lat="42.03385142509136" lon="12.766895291908215"><ele>218.0</ele><time>2026-03-30T11:08:08Z</time></trkpt><trkpt lat="42.03376729279245" lon="12.766894916190784"><ele>220.0</ele><time>2026-03-30T11:08:09Z</time></trkpt><trkpt lat="42.033700125049876" lon="12.766918534675238"><ele>222.0</ele><time>2026-03-30T11:08:10Z</time></trkpt><trkpt lat="42.033638994261665" lon="12.766969493905696"><ele>224.0</ele><time>2026-03-30T11:08:11Z</time></trkpt><trkpt lat="42.033594427549275" lon="12.767050901137504"><ele>226.0</ele><time>2026-03-30T11:08:12.001Z</time></trkpt><trkpt lat="42.03353485743277" lon="12.767131986188414"><ele>228.0</ele><time>2026-03-30T11:08:13.001Z</time></trkpt><trkpt lat="42.03346963444997" lon="12.767215844633952"><ele>228.0</ele><time>2026-03-30T11:08:14.001Z</time></trkpt><trkpt lat="42.03340090759658" lon="12.767282055188163"><ele>228.0</ele><time>2026-03-30T11:08:15.001Z</time></trkpt><trkpt lat="42.03334336699123" lon="12.7673553229243"><ele>228.0</ele><time>2026-03-30T11:08:16.001Z</time></trkpt><trkpt lat="42.03328952785893" lon="12.767451708864371"><ele>228.0</ele><time>2026-03-30T11:08:17.001Z</time></trkpt><trkpt lat="42.03322196942696" lon="12.767532638201429"><ele>228.0</ele><time>2026-03-30T11:08:18.001Z</time></trkpt><trkpt lat="42.033174341253314" lon="12.767601447984136"><ele>228.0</ele><time>2026-03-30T11:08:19.001Z</time></trkpt><trkpt lat="42.033125735576334" lon="12.767668171503077"><ele>228.83333333333334</ele><time>2026-03-30T11:08:20.001Z</time></trkpt><trkpt lat="42.03302762225201" lon="12.76777509072588"><ele>229.66666666666669</ele><time>2026-03-30T11:08:22.001Z</time></trkpt><trkpt lat="42.03296985384271" lon="12.767809528015865"><ele>230.5</ele><time>2026-03-30T11:08:23.001Z</time></trkpt><trkpt lat="42.03290633735293" lon="12.767829639121645"><ele>231.33333333333334</ele><time>2026-03-30T11:08:24.001Z</time></trkpt><trkpt lat="42.03283955499512" lon="12.76786335591206"><ele>232.16666666666669</ele><time>2026-03-30T11:08:25.001Z</time></trkpt><trkpt lat="42.03272918002096" lon="12.767855748974048"><ele>233.0</ele><time>2026-03-30T11:08:27.001Z</time></trkpt><trkpt lat="42.032601149359216" lon="12.767835028615997"><ele>233.00000000000003</ele><time>2026-03-30T11:08:29.001Z</time></trkpt><trkpt lat="42.032533622556464" lon="12.767832669996551"><ele>233.0</ele><time>2026-03-30T11:08:30.001Z</time></trkpt><trkpt lat="42.032461863145286" lon="12.767807733248647"><ele>233.0</ele><time>2026-03-30T11:08:31.001Z</time></trkpt><trkpt lat="42.03235116025289" lon="12.767729708891634"><ele>233.0</ele><time>2026-03-30T11:08:33.001Z</time></trkpt><trkpt lat="42.03229681827756" lon="12.767682559013856"><ele>233.00000000000003</ele><time>2026-03-30T11:08:34.001Z</time></trkpt><trkpt lat="42.03223861214721" lon="12.767623777159244"><ele>233.0</ele><time>2026-03-30T11:08:35.001Z</time></trkpt><trkpt lat="42.032173337607546" lon="12.767560065501685"><ele>232.33333333333334</ele><time>2026-03-30T11:08:36.001Z</time></trkpt><trkpt lat="42.03211454446994" lon="12.767503758783933"><ele>231.66666666666669</ele><time>2026-03-30T11:08:37.001Z</time></trkpt><trkpt lat="42.03205843034539" lon="12.767452989901093"><ele>231.0</ele><time>2026-03-30T11:08:38.001Z</time></trkpt><trkpt lat="42.03199228064465" lon="12.767403701063328"><ele>230.33333333333331</ele><time>2026-03-30T11:08:39.001Z</time></trkpt><trkpt lat="42.03192264657195" lon="12.767355928958091"><ele>229.66666666666666</ele><time>2026-03-30T11:08:40.001Z</time></trkpt><trkpt lat="42.031845441217975" lon="12.767306599085513"><ele>229.0</ele><time>2026-03-30T11:08:41.001Z</time></trkpt><trkpt lat="42.031772529292084" lon="12.767265303271326"><ele>228.99999999999997</ele><time>2026-03-30T11:08:42Z</time></trkpt><trkpt lat="42.03170139556664" lon="12.76723174173367"><ele>229.0</ele><time>2026-03-30T11:08:43Z</time></trkpt><trkpt lat="42.03162171591588" lon="12.767223463965038"><ele>229.0</ele><time>2026-03-30T11:08:44Z</time></trkpt><trkpt lat="42.031551498029565" lon="12.767179802985762"><ele>229.0</ele><time>2026-03-30T11:08:45Z</time></trkpt><trkpt lat="42.03147288895366" lon="12.767155023607641"><ele>228.99999999999997</ele><time>2026-03-30T11:08:46Z</time></trkpt><trkpt lat="42.03139374473726" lon="12.767130925923363"><ele>229.0</ele><time>2026-03-30T11:08:47Z</time></trkpt><trkpt lat="42.031330103367786" lon="12.767112183192188"><ele>228.33333333333331</ele><time>2026-03-30T11:08:48Z</time></trkpt><trkpt lat="42.031250356183705" lon="12.767092949903704"><ele>227.66666666666666</ele><time>2026-03-30T11:08:49Z</time></trkpt><trkpt lat="42.03118694176773" lon="12.767101250647212"><ele>227.0</ele><time>2026-03-30T11:08:50Z</time></trkpt><trkpt lat="42.031125163596776" lon="12.767083459368061"><ele>226.33333333333331</ele><time>2026-03-30T11:08:51Z</time></trkpt><trkpt lat="42.03106685600877" lon="12.767122934077763"><ele>225.66666666666666</ele><time>2026-03-30T11:08:52Z</time></trkpt><trkpt lat="42.03094524895691" lon="12.767138681775496"><ele>225.0</ele><time>2026-03-30T11:08:54Z</time></trkpt><trkpt lat="42.03085908834371" lon="12.767127609539504"><ele>224.8</ele><time>2026-03-30T11:08:55Z</time></trkpt><trkpt lat="42.03075891927117" lon="12.767137748602885"><ele>224.6</ele><time>2026-03-30T11:08:56Z</time></trkpt><trkpt lat="42.03066442703158" lon="12.767103524169746"><ele>224.39999999999998</ele><time>2026-03-30T11:08:57Z</time></trkpt><trkpt lat="42.030578637301595" lon="12.767090805741883"><ele>224.2</ele><time>2026-03-30T11:08:58Z</time></trkpt><trkpt lat="42.0304851698841" lon="12.767076375799638"><ele>224.0</ele><time>2026-03-30T11:08:59Z</time></trkpt><trkpt lat="42.03039252757446" lon="12.767067727634595"><ele>224.00000000000003</ele><time>2026-03-30T11:09:00Z</time></trkpt><trkpt lat="42.03029760040334" lon="12.767069587301126"><ele>224.0</ele><time>2026-03-30T11:09:01Z</time></trkpt><trkpt lat="42.03020710376241" lon="12.767075830225442"><ele>224.0</ele><time>2026-03-30T11:09:02Z</time></trkpt><trkpt lat="42.030112911072216" lon="12.76707946103673"><ele>224.0</ele><time>2026-03-30T11:09:03Z</time></trkpt><trkpt lat="42.03003391712752" lon="12.767070492877359"><ele>224.00000000000003</ele><time>2026-03-30T11:09:04Z</time></trkpt><trkpt lat="42.02996122072885" lon="12.767056720362806"><ele>224.0</ele><time>2026-03-30T11:09:05Z</time></trkpt><trkpt lat="42.02988947416624" lon="12.767035051204338"><ele>223.66666666666669</ele><time>2026-03-30T11:09:06Z</time></trkpt><trkpt lat="42.02980988089044" lon="12.766998226401268"><ele>223.33333333333334</ele><time>2026-03-30T11:09:07Z</time></trkpt><trkpt lat="42.029731186127066" lon="12.766948631459115"><ele>223.0</ele><time>2026-03-30T11:09:08Z</time></trkpt><trkpt lat="42.02966279510829" lon="12.766898343300959"><ele>222.66666666666669</ele><time>2026-03-30T11:09:09Z</time></trkpt><trkpt lat="42.02959209289469" lon="12.766847980844924"><ele>222.33333333333334</ele><time>2026-03-30T11:09:10Z</time></trkpt><trkpt lat="42.02952562524727" lon="12.766800634739646"><ele>222.0</ele><time>2026-03-30T11:09:11Z</time></trkpt><trkpt lat="42.02946081955725" lon="12.766752898056287"><ele>222.0</ele><time>2026-03-30T11:09:12Z</time></trkpt><trkpt lat="42.02935746144195" lon="12.766687894916858"><ele>222.0</ele><time>2026-03-30T11:09:14Z</time></trkpt><trkpt lat="42.02931246706349" lon="12.766578243764714"><ele>222.0</ele><time>2026-03-30T11:09:16Z</time></trkpt><trkpt lat="42.02921248891106" lon="12.766477457652716"><ele>222.0</ele><time>2026-03-30T11:09:18Z</time></trkpt><trkpt lat="42.02915603006598" lon="12.766433162483304"><ele>222.0</ele><time>2026-03-30T11:09:19Z</time></trkpt><trkpt lat="42.02904869858003" lon="12.766356053385492"><ele>220.66666666666666</ele><time>2026-03-30T11:09:21Z</time></trkpt><trkpt lat="42.02895799592763" lon="12.766299821679635"><ele>219.33333333333331</ele><time>2026-03-30T11:09:23Z</time></trkpt><trkpt lat="42.028883806895855" lon="12.766254462042694"><ele>218.0</ele><time>2026-03-30T11:09:25Z</time></trkpt><trkpt lat="42.02882462213962" lon="12.766190595616647"><ele>216.66666666666666</ele><time>2026-03-30T11:09:28Z</time></trkpt><trkpt lat="42.02879404713583" lon="12.76607196106552"><ele>215.33333333333331</ele><time>2026-03-30T11:09:31Z</time></trkpt><trkpt lat="42.02878325862077" lon="12.765949453357607"><ele>214.0</ele><time>2026-03-30T11:09:33Z</time></trkpt><trkpt lat="42.02880462300798" lon="12.765815772505443"><ele>213.99999999999997</ele><time>2026-03-30T11:09:35Z</time></trkpt><trkpt lat="42.028802500171345" lon="12.765666104717006"><ele>214.0</ele><time>2026-03-30T11:09:37Z</time></trkpt><trkpt lat="42.02879520861655" lon="12.765578039854873"><ele>214.0</ele><time>2026-03-30T11:09:38Z</time></trkpt><trkpt lat="42.028769672908076" lon="12.76544117773325"><ele>214.0</ele><time>2026-03-30T11:09:40Z</time></trkpt><trkpt lat="42.02874612073231" lon="12.765352852493491"><ele>213.99999999999997</ele><time>2026-03-30T11:09:42Z</time></trkpt><trkpt lat="42.02871155553865" lon="12.765254659711163"><ele>214.0</ele><time>2026-03-30T11:09:45Z</time></trkpt><trkpt lat="42.02868077902055" lon="12.765171182261467"><ele>211.79999999999998</ele><time>2026-03-30T11:09:49Z</time></trkpt><trkpt lat="42.028650768224395" lon="12.765077278557786"><ele>209.59999999999997</ele><time>2026-03-30T11:09:55Z</time></trkpt><trkpt lat="42.02861372638721" lon="12.764938354188239"><ele>207.4</ele><time>2026-03-30T11:09:58Z</time></trkpt><trkpt lat="42.028592009735235" lon="12.764828089897309"><ele>205.2</ele><time>2026-03-30T11:10:00Z</time></trkpt><trkpt lat="42.02858918155809" lon="12.76467387663127"><ele>203.0</ele><time>2026-03-30T11:10:02Z</time></trkpt><trkpt lat="42.028599516377" lon="12.76457339337803"><ele>203.00000000000003</ele><time>2026-03-30T11:10:03Z</time></trkpt><trkpt lat="42.028596814087535" lon="12.764460677285392"><ele>203.0</ele><time>2026-03-30T11:10:04Z</time></trkpt><trkpt lat="42.02861091995152" lon="12.764350811276385"><ele>203.0</ele><time>2026-03-30T11:10:05Z</time></trkpt><trkpt lat="42.028634540123946" lon="12.764235559639832"><ele>203.0</ele><time>2026-03-30T11:10:06Z</time></trkpt><trkpt lat="42.028639337482076" lon="12.764141410555679"><ele>203.00000000000003</ele><time>2026-03-30T11:10:07Z</time></trkpt><trkpt lat="42.02864246094092" lon="12.764024190113684"><ele>203.0</ele><time>2026-03-30T11:10:09Z</time></trkpt><trkpt lat="42.02864618346118" lon="12.763908123098659"><ele>203.0</ele><time>2026-03-30T11:10:11Z</time></trkpt><trkpt lat="42.02865309107743" lon="12.763789656123175"><ele>203.0</ele><time>2026-03-30T11:10:13Z</time></trkpt><trkpt lat="42.028666265224054" lon="12.763623010378861"><ele>203.0</ele><time>2026-03-30T11:10:15Z</time></trkpt><trkpt lat="42.02867051818565" lon="12.76348884258502"><ele>203.0</ele><time>2026-03-30T11:10:17.001Z</time></trkpt><trkpt lat="42.028672407982164" lon="12.763377783187483"><ele>203.0</ele><time>2026-03-30T11:10:19.001Z</time></trkpt><trkpt lat="42.028679024366156" lon="12.763271807776075"><ele>203.2</ele><time>2026-03-30T11:10:21.001Z</time></trkpt><trkpt lat="42.02869563407876" lon="12.763171582165686"><ele>203.4</ele><time>2026-03-30T11:11:21Z</time></trkpt><trkpt lat="42.02871353890021" lon="12.763035271822012"><ele>203.6</ele><time>2026-03-30T11:11:24Z</time></trkpt><trkpt lat="42.02873322415563" lon="12.762934063956534"><ele>203.79999999999998</ele><time>2026-03-30T11:11:25Z</time></trkpt><trkpt lat="42.02875454510433" lon="12.76280553696099"><ele>204.0</ele><time>2026-03-30T11:11:26Z</time></trkpt><trkpt lat="42.028771695488075" lon="12.762652107858218"><ele>201.75</ele><time>2026-03-30T11:11:27Z</time></trkpt><trkpt lat="42.02878666070432" lon="12.76249197542045"><ele>199.5</ele><time>2026-03-30T11:11:28Z</time></trkpt><trkpt lat="42.028797994882204" lon="12.762336268437506"><ele>197.25</ele><time>2026-03-30T11:11:29Z</time></trkpt><trkpt lat="42.02880522947611" lon="12.762172185716373"><ele>195.0</ele><time>2026-03-30T11:11:30Z</time></trkpt><trkpt lat="42.0288088425055" lon="12.762009487209003"><ele>195.2</ele><time>2026-03-30T11:11:31Z</time></trkpt><trkpt lat="42.02881713473286" lon="12.761851522023953"><ele>195.4</ele><time>2026-03-30T11:11:32Z</time></trkpt><trkpt lat="42.028829728250656" lon="12.76169173279174"><ele>195.60000000000002</ele><time>2026-03-30T11:11:33Z</time></trkpt><trkpt lat="42.02884503110716" lon="12.761549230200355"><ele>195.8</ele><time>2026-03-30T11:11:34Z</time></trkpt><trkpt lat="42.02886225456486" lon="12.761412390075208"><ele>196.0</ele><time>2026-03-30T11:11:35Z</time></trkpt><trkpt lat="42.02887663620123" lon="12.761291012228694"><ele>196.0</ele><time>2026-03-30T11:11:36Z</time></trkpt><trkpt lat="42.02889169910996" lon="12.761159927117308"><ele>196.0</ele><time>2026-03-30T11:11:37Z</time></trkpt><trkpt lat="42.02888903341279" lon="12.761033701426273"><ele>196.0</ele><time>2026-03-30T11:11:38Z</time></trkpt><trkpt lat="42.02889790715201" lon="12.76093147909086"><ele>196.0</ele><time>2026-03-30T11:11:39Z</time></trkpt><trkpt lat="42.02891169796814" lon="12.760787727404558"><ele>196.0</ele><time>2026-03-30T11:11:41Z</time></trkpt><trkpt lat="42.02893186327364" lon="12.760618972194013"><ele>196.0</ele><time>2026-03-30T11:11:43Z</time></trkpt><trkpt lat="42.02895157606337" lon="12.760467128352449"><ele>196.0</ele><time>2026-03-30T11:11:44Z</time></trkpt><trkpt lat="42.02897033064695" lon="12.760297692717403"><ele>196.0</ele><time>2026-03-30T11:11:44.999Z</time></trkpt><trkpt lat="42.02898403509914" lon="12.760125134378596"><ele>196.0</ele><time>2026-03-30T11:11:45.999Z</time></trkpt><trkpt lat="42.02899700060097" lon="12.759955355393354"><ele>196.0</ele><time>2026-03-30T11:11:46.999Z</time></trkpt><trkpt lat="42.02900952387556" lon="12.759791367219611"><ele>196.0</ele><time>2026-03-30T11:11:47.999Z</time></trkpt><trkpt lat="42.029024185552316" lon="12.759628769094869"><ele>196.0</ele><time>2026-03-30T11:11:48.999Z</time></trkpt><trkpt lat="42.0290386648247" lon="12.759473536610574"><ele>196.0</ele><time>2026-03-30T11:11:49.999Z</time></trkpt><trkpt lat="42.02905194446782" lon="12.759319697939716"><ele>194.8</ele><time>2026-03-30T11:11:50.999Z</time></trkpt><trkpt lat="42.02906090908078" lon="12.759176042264745"><ele>193.60000000000002</ele><time>2026-03-30T11:11:51.999Z</time></trkpt><trkpt lat="42.02906667771216" lon="12.759042757471912"><ele>192.4</ele><time>2026-03-30T11:11:52.999Z</time></trkpt><trkpt lat="42.029055270575356" lon="12.75891812841113"><ele>191.2</ele><time>2026-03-30T11:11:53.999Z</time></trkpt><trkpt lat="42.02907013548139" lon="12.758806581450427"><ele>190.0</ele><time>2026-03-30T11:11:54.999Z</time></trkpt><trkpt lat="42.029070045978976" lon="12.758710244803352"><ele>190.0</ele><time>2026-03-30T11:11:55.999Z</time></trkpt><trkpt lat="42.02909879770474" lon="12.75855277062107"><ele>190.0</ele><time>2026-03-30T11:11:57.999Z</time></trkpt><trkpt lat="42.029065333303755" lon="12.758479425725747"><ele>190.0</ele><time>2026-03-30T11:11:58.999Z</time></trkpt><trkpt lat="42.02899761900589" lon="12.758366209333456"><ele>190.0</ele><time>2026-03-30T11:12:00.999Z</time></trkpt><trkpt lat="42.02893383401277" lon="12.758218304760108"><ele>190.0</ele><time>2026-03-30T11:12:02.999Z</time></trkpt><trkpt lat="42.02887236965976" lon="12.758098009588387"><ele>191.5</ele><time>2026-03-30T11:12:04.999Z</time></trkpt><trkpt lat="42.02916287230211" lon="12.757719005107454"><ele>193.0</ele><time>2026-03-30T11:12:05.999Z</time></trkpt><trkpt lat="42.029174641362175" lon="12.75760705318706"><ele>191.8</ele><time>2026-03-30T11:12:06.999Z</time></trkpt><trkpt lat="42.02918048571594" lon="12.757493151626123"><ele>190.60000000000002</ele><time>2026-03-30T11:12:07.999Z</time></trkpt><trkpt lat="42.029201749293115" lon="12.75738866063763"><ele>189.39999999999998</ele><time>2026-03-30T11:12:08.999Z</time></trkpt><trkpt lat="42.02922027818311" lon="12.757258759510012"><ele>188.2</ele><time>2026-03-30T11:12:09.999Z</time></trkpt><trkpt lat="42.02922695593094" lon="12.757110145781894"><ele>187.0</ele><time>2026-03-30T11:12:10.999Z</time></trkpt><trkpt lat="42.029231612744354" lon="12.756961045123484"><ele>185.25</ele><time>2026-03-30T11:12:11.999Z</time></trkpt><trkpt lat="42.02924116963805" lon="12.756802876906203"><ele>183.5</ele><time>2026-03-30T11:12:12.999Z</time></trkpt><trkpt lat="42.029259893175315" lon="12.756652668037553"><ele>181.75</ele><time>2026-03-30T11:12:13.999Z</time></trkpt><trkpt lat="42.029277090324065" lon="12.756489323662846"><ele>180.0</ele><time>2026-03-30T11:12:14.999Z</time></trkpt><trkpt lat="42.02928327932381" lon="12.756339949753455"><ele>180.0</ele><time>2026-03-30T11:12:15.999Z</time></trkpt><trkpt lat="42.029292296197255" lon="12.75620906219901"><ele>180.0</ele><time>2026-03-30T11:12:16.999Z</time></trkpt><trkpt lat="42.02933572335255" lon="12.756076175854362"><ele>180.0</ele><time>2026-03-30T11:12:17.999Z</time></trkpt><trkpt lat="42.029361559288574" lon="12.755944226838375"><ele>180.0</ele><time>2026-03-30T11:12:18.999Z</time></trkpt><trkpt lat="42.029364302728204" lon="12.75580012859034"><ele>180.0</ele><time>2026-03-30T11:12:19.999Z</time></trkpt><trkpt lat="42.02938151827773" lon="12.75566109954946"><ele>180.0</ele><time>2026-03-30T11:12:20.999Z</time></trkpt><trkpt lat="42.02941213544259" lon="12.755538135607168"><ele>180.0</ele><time>2026-03-30T11:12:22Z</time></trkpt><trkpt lat="42.02942693005989" lon="12.755412100154823"><ele>180.0</ele><time>2026-03-30T11:12:23Z</time></trkpt><trkpt lat="42.029441830860144" lon="12.755277266023525"><ele>180.0</ele><time>2026-03-30T11:12:24Z</time></trkpt><trkpt lat="42.02945407002974" lon="12.755166516492933"><ele>180.0</ele><time>2026-03-30T11:12:25Z</time></trkpt><trkpt lat="42.029463928223535" lon="12.755070655556008"><ele>180.0</ele><time>2026-03-30T11:12:26Z</time></trkpt><trkpt lat="42.02945804725371" lon="12.754970473160736"><ele>180.0</ele><time>2026-03-30T11:12:27Z</time></trkpt><trkpt lat="42.02948212593721" lon="12.754865600126507"><ele>180.0</ele><time>2026-03-30T11:12:28Z</time></trkpt><trkpt lat="42.029490012577305" lon="12.754759045407402"><ele>180.0</ele><time>2026-03-30T11:12:29Z</time></trkpt><trkpt lat="42.029497679833874" lon="12.754654523785277"><ele>180.0</ele><time>2026-03-30T11:12:30Z</time></trkpt><trkpt lat="42.029505003388095" lon="12.75455157356973"><ele>180.0</ele><time>2026-03-30T11:12:31Z</time></trkpt><trkpt lat="42.029501891744815" lon="12.754461134135369"><ele>180.0</ele><time>2026-03-30T11:12:32Z</time></trkpt><trkpt lat="42.02951183421839" lon="12.754299891129016"><ele>179.0</ele><time>2026-03-30T11:12:34Z</time></trkpt><trkpt lat="42.029520636549165" lon="12.754184928123868"><ele>178.0</ele><time>2026-03-30T11:12:35Z</time></trkpt><trkpt lat="42.029528571815625" lon="12.75406391046864"><ele>177.0</ele><time>2026-03-30T11:12:36Z</time></trkpt><trkpt lat="42.02953544611863" lon="12.753942788377385"><ele>176.0</ele><time>2026-03-30T11:12:37Z</time></trkpt><trkpt lat="42.029543173086466" lon="12.753834455298913"><ele>175.0</ele><time>2026-03-30T11:12:38Z</time></trkpt><trkpt lat="42.0295504554958" lon="12.753719079852972"><ele>174.0</ele><time>2026-03-30T11:12:39Z</time></trkpt><trkpt lat="42.02955928684859" lon="12.75361153041058"><ele>171.79999999999998</ele><time>2026-03-30T11:12:40Z</time></trkpt><trkpt lat="42.02956542439635" lon="12.753491178689865"><ele>169.6</ele><time>2026-03-30T11:12:41Z</time></trkpt><trkpt lat="42.02957321181783" lon="12.753352948669502"><ele>167.4</ele><time>2026-03-30T11:12:42Z</time></trkpt><trkpt lat="42.029581400930226" lon="12.753210633663478"><ele>165.2</ele><time>2026-03-30T11:12:43Z</time></trkpt><trkpt lat="42.02958860205608" lon="12.75307925832949"><ele>163.0</ele><time>2026-03-30T11:12:44Z</time></trkpt><trkpt lat="42.02959579795553" lon="12.752951030326201"><ele>163.0</ele><time>2026-03-30T11:12:45Z</time></trkpt><trkpt lat="42.02962112016865" lon="12.752852058633417"><ele>163.0</ele><time>2026-03-30T11:12:46Z</time></trkpt><trkpt lat="42.029632874515535" lon="12.7527666984773"><ele>163.0</ele><time>2026-03-30T11:12:47Z</time></trkpt><trkpt lat="42.02964355515048" lon="12.752634307053807"><ele>163.0</ele><time>2026-03-30T11:12:49Z</time></trkpt><trkpt lat="42.02961631632241" lon="12.752538825389056"><ele>163.0</ele><time>2026-03-30T11:12:50Z</time></trkpt><trkpt lat="42.02951058415312" lon="12.752479650445235"><ele>163.0</ele><time>2026-03-30T11:12:51Z</time></trkpt><trkpt lat="42.02942120250615" lon="12.75247192815254"><ele>161.5</ele><time>2026-03-30T11:12:52Z</time></trkpt><trkpt lat="42.029326760128214" lon="12.752456803725247"><ele>160.0</ele><time>2026-03-30T11:12:53Z</time></trkpt><trkpt lat="42.02924135082539" lon="12.752451860258844"><ele>158.5</ele><time>2026-03-30T11:12:54Z</time></trkpt><trkpt lat="42.029130633584" lon="12.752441888805963"><ele>157.0</ele><time>2026-03-30T11:12:56Z</time></trkpt><trkpt lat="42.02906023432407" lon="12.75241796605727"><ele>155.5</ele><time>2026-03-30T11:12:59Z</time></trkpt><trkpt lat="42.029049094302394" lon="12.75231726859561"><ele>154.0</ele><time>2026-03-30T11:13:01Z</time></trkpt><trkpt lat="42.02905781606036" lon="12.752148103280202"><ele>140.0</ele><time>2026-03-30T11:13:03Z</time></trkpt><trkpt lat="42.029064620961265" lon="12.752055363354936"><ele>140.0</ele><time>2026-03-30T11:13:04Z</time></trkpt><trkpt lat="42.029057333561795" lon="12.751968227875105"><ele>140.0</ele><time>2026-03-30T11:13:05Z</time></trkpt><trkpt lat="42.02908117806323" lon="12.751860494359553"><ele>130.0</ele><time>2026-03-30T11:13:08Z</time></trkpt></trkseg></trk></gpx>